<?xml version="1.0" encoding="UTF-8" standalone="no" ?>
<gpx xmlns="http://www.topografix.com/GPX/1/1" xmlns:xsi="http://www.w3.org/2001/XMLSchema-instance" xsi:schemaLocation="http://www.topografix.com/GPX/1/1 http://www.topografix.com/GPX/1/1/gpx.xsd" version="1.1" creator="VisuGPX - https://www.visugpx.com">
  <metadata>
    <name>170405HR3ROBJeunes</name>
    <desc><![CDATA[Excellente et tres bonne sortie]]></desc>
  </metadata>
  <trk>
    <name><![CDATA[170405HR3ROBJeunes]]></name>
    <trkseg>
      <trkpt lat="43.41578" lon="6.07038">
        <ele>220</ele>
        <time>2017-04-05T12:03:11Z</time>
      </trkpt>
      <trkpt lat="43.41579" lon="6.07038">
        <ele>202.39999389648</ele>
        <time>2017-04-05T12:03:12Z</time>
      </trkpt>
      <trkpt lat="43.4158" lon="6.07039">
        <ele>202</ele>
        <time>2017-04-05T12:03:14Z</time>
      </trkpt>
      <trkpt lat="43.41581" lon="6.07038">
        <ele>202.39999389648</ele>
        <time>2017-04-05T12:03:24Z</time>
      </trkpt>
      <trkpt lat="43.41581" lon="6.07039">
        <ele>202</ele>
        <time>2017-04-05T12:03:34Z</time>
      </trkpt>
      <trkpt lat="43.41579" lon="6.07039">
        <ele>202.39999389648</ele>
        <time>2017-04-05T12:03:45Z</time>
      </trkpt>
      <trkpt lat="43.41578" lon="6.07038">
        <ele>202.19999694824</ele>
        <time>2017-04-05T12:03:51Z</time>
      </trkpt>
      <trkpt lat="43.41578" lon="6.07039">
        <ele>202.39999389648</ele>
        <time>2017-04-05T12:03:55Z</time>
      </trkpt>
      <trkpt lat="43.41579" lon="6.07041">
        <ele>202.19999694824</ele>
        <time>2017-04-05T12:04:15Z</time>
      </trkpt>
      <trkpt lat="43.41578" lon="6.07044">
        <ele>202.19999694824</ele>
        <time>2017-04-05T12:04:19Z</time>
      </trkpt>
      <trkpt lat="43.41578" lon="6.07049">
        <ele>202.39999389648</ele>
        <time>2017-04-05T12:04:21Z</time>
      </trkpt>
      <trkpt lat="43.4158" lon="6.07062">
        <ele>202.39999389648</ele>
        <time>2017-04-05T12:04:25Z</time>
      </trkpt>
      <trkpt lat="43.41582" lon="6.0708">
        <ele>202.39999389648</ele>
        <time>2017-04-05T12:04:29Z</time>
      </trkpt>
      <trkpt lat="43.41584" lon="6.07108">
        <ele>202</ele>
        <time>2017-04-05T12:04:35Z</time>
      </trkpt>
      <trkpt lat="43.41583" lon="6.07112">
        <ele>202</ele>
        <time>2017-04-05T12:04:37Z</time>
      </trkpt>
      <trkpt lat="43.41564" lon="6.07118">
        <ele>201.60000610352</ele>
        <time>2017-04-05T12:04:45Z</time>
      </trkpt>
      <trkpt lat="43.41547" lon="6.07114">
        <ele>201.60000610352</ele>
        <time>2017-04-05T12:04:53Z</time>
      </trkpt>
      <trkpt lat="43.41546" lon="6.07108">
        <ele>201.60000610352</ele>
        <time>2017-04-05T12:04:55Z</time>
      </trkpt>
      <trkpt lat="43.41544" lon="6.0709">
        <ele>201.60000610352</ele>
        <time>2017-04-05T12:05:00Z</time>
      </trkpt>
      <trkpt lat="43.41531" lon="6.07078">
        <ele>201.80000305176</ele>
        <time>2017-04-05T12:05:05Z</time>
      </trkpt>
      <trkpt lat="43.41513" lon="6.0708">
        <ele>201.39999389648</ele>
        <time>2017-04-05T12:05:09Z</time>
      </trkpt>
      <trkpt lat="43.41508" lon="6.07081">
        <ele>201.19999694824</ele>
        <time>2017-04-05T12:05:10Z</time>
      </trkpt>
      <trkpt lat="43.41496" lon="6.07083">
        <ele>200.80000305176</ele>
        <time>2017-04-05T12:05:13Z</time>
      </trkpt>
      <trkpt lat="43.41488" lon="6.0708">
        <ele>200.60000610352</ele>
        <time>2017-04-05T12:05:15Z</time>
      </trkpt>
      <trkpt lat="43.41475" lon="6.07076">
        <ele>200.19999694824</ele>
        <time>2017-04-05T12:05:18Z</time>
      </trkpt>
      <trkpt lat="43.41471" lon="6.07072">
        <ele>199.60000610352</ele>
        <time>2017-04-05T12:05:25Z</time>
      </trkpt>
      <trkpt lat="43.4147" lon="6.07072">
        <ele>199.39999389648</ele>
        <time>2017-04-05T12:05:32Z</time>
      </trkpt>
      <trkpt lat="43.4147" lon="6.07072">
        <ele>199.39999389648</ele>
        <time>2017-04-05T12:05:35Z</time>
      </trkpt>
      <trkpt lat="43.4147" lon="6.07071">
        <ele>199.39999389648</ele>
        <time>2017-04-05T12:05:40Z</time>
      </trkpt>
      <trkpt lat="43.4147" lon="6.07071">
        <ele>199.39999389648</ele>
        <time>2017-04-05T12:05:45Z</time>
      </trkpt>
      <trkpt lat="43.4147" lon="6.0707">
        <ele>199.80000305176</ele>
        <time>2017-04-05T12:05:49Z</time>
      </trkpt>
      <trkpt lat="43.41469" lon="6.07069">
        <ele>200</ele>
        <time>2017-04-05T12:06:05Z</time>
      </trkpt>
      <trkpt lat="43.41467" lon="6.07068">
        <ele>199.60000610352</ele>
        <time>2017-04-05T12:06:15Z</time>
      </trkpt>
      <trkpt lat="43.41467" lon="6.07067">
        <ele>199.80000305176</ele>
        <time>2017-04-05T12:06:35Z</time>
      </trkpt>
      <trkpt lat="43.41467" lon="6.07067">
        <ele>199.80000305176</ele>
        <time>2017-04-05T12:06:45Z</time>
      </trkpt>
      <trkpt lat="43.41464" lon="6.07065">
        <ele>199.80000305176</ele>
        <time>2017-04-05T12:06:52Z</time>
      </trkpt>
      <trkpt lat="43.41463" lon="6.07058">
        <ele>199.39999389648</ele>
        <time>2017-04-05T12:06:54Z</time>
      </trkpt>
      <trkpt lat="43.41464" lon="6.07055">
        <ele>199.19999694824</ele>
        <time>2017-04-05T12:06:55Z</time>
      </trkpt>
      <trkpt lat="43.41481" lon="6.0702">
        <ele>199.39999389648</ele>
        <time>2017-04-05T12:07:05Z</time>
      </trkpt>
      <trkpt lat="43.41486" lon="6.07007">
        <ele>199.60000610352</ele>
        <time>2017-04-05T12:07:08Z</time>
      </trkpt>
      <trkpt lat="43.41489" lon="6.06977">
        <ele>200.19999694824</ele>
        <time>2017-04-05T12:07:14Z</time>
      </trkpt>
      <trkpt lat="43.41476" lon="6.06951">
        <ele>200.80000305176</ele>
        <time>2017-04-05T12:07:20Z</time>
      </trkpt>
      <trkpt lat="43.41466" lon="6.06929">
        <ele>200.80000305176</ele>
        <time>2017-04-05T12:07:25Z</time>
      </trkpt>
      <trkpt lat="43.41465" lon="6.06926">
        <ele>201</ele>
        <time>2017-04-05T12:07:26Z</time>
      </trkpt>
      <trkpt lat="43.41472" lon="6.0691">
        <ele>201.19999694824</ele>
        <time>2017-04-05T12:07:30Z</time>
      </trkpt>
      <trkpt lat="43.41474" lon="6.06899">
        <ele>201.39999389648</ele>
        <time>2017-04-05T12:07:36Z</time>
      </trkpt>
      <trkpt lat="43.41473" lon="6.06895">
        <ele>201.19999694824</ele>
        <time>2017-04-05T12:07:44Z</time>
      </trkpt>
      <trkpt lat="43.41472" lon="6.06889">
        <ele>201.60000610352</ele>
        <time>2017-04-05T12:07:46Z</time>
      </trkpt>
      <trkpt lat="43.41472" lon="6.06884">
        <ele>201.60000610352</ele>
        <time>2017-04-05T12:07:47Z</time>
      </trkpt>
      <trkpt lat="43.41473" lon="6.06869">
        <ele>201.80000305176</ele>
        <time>2017-04-05T12:07:50Z</time>
      </trkpt>
      <trkpt lat="43.41471" lon="6.06859">
        <ele>201.60000610352</ele>
        <time>2017-04-05T12:07:52Z</time>
      </trkpt>
      <trkpt lat="43.41473" lon="6.06838">
        <ele>201.39999389648</ele>
        <time>2017-04-05T12:07:56Z</time>
      </trkpt>
      <trkpt lat="43.41476" lon="6.06829">
        <ele>201.19999694824</ele>
        <time>2017-04-05T12:07:58Z</time>
      </trkpt>
      <trkpt lat="43.4149" lon="6.06784">
        <ele>201.39999389648</ele>
        <time>2017-04-05T12:08:06Z</time>
      </trkpt>
      <trkpt lat="43.41494" lon="6.06752">
        <ele>202.19999694824</ele>
        <time>2017-04-05T12:08:11Z</time>
      </trkpt>
      <trkpt lat="43.41495" lon="6.0674">
        <ele>202.39999389648</ele>
        <time>2017-04-05T12:08:13Z</time>
      </trkpt>
      <trkpt lat="43.41496" lon="6.06724">
        <ele>202.60000610352</ele>
        <time>2017-04-05T12:08:16Z</time>
      </trkpt>
      <trkpt lat="43.41497" lon="6.06686">
        <ele>203.39999389648</ele>
        <time>2017-04-05T12:08:23Z</time>
      </trkpt>
      <trkpt lat="43.41498" lon="6.06668">
        <ele>203.80000305176</ele>
        <time>2017-04-05T12:08:26Z</time>
      </trkpt>
      <trkpt lat="43.41509" lon="6.0661">
        <ele>204.39999389648</ele>
        <time>2017-04-05T12:08:36Z</time>
      </trkpt>
      <trkpt lat="43.4151" lon="6.06604">
        <ele>204.39999389648</ele>
        <time>2017-04-05T12:08:37Z</time>
      </trkpt>
      <trkpt lat="43.41515" lon="6.06571">
        <ele>204.80000305176</ele>
        <time>2017-04-05T12:08:43Z</time>
      </trkpt>
      <trkpt lat="43.41517" lon="6.06554">
        <ele>204.60000610352</ele>
        <time>2017-04-05T12:08:46Z</time>
      </trkpt>
      <trkpt lat="43.4153" lon="6.06501">
        <ele>205.39999389648</ele>
        <time>2017-04-05T12:08:56Z</time>
      </trkpt>
      <trkpt lat="43.41537" lon="6.06488">
        <ele>205.60000610352</ele>
        <time>2017-04-05T12:08:59Z</time>
      </trkpt>
      <trkpt lat="43.41543" lon="6.06475">
        <ele>206</ele>
        <time>2017-04-05T12:09:02Z</time>
      </trkpt>
      <trkpt lat="43.41544" lon="6.06463">
        <ele>206</ele>
        <time>2017-04-05T12:09:04Z</time>
      </trkpt>
      <trkpt lat="43.41543" lon="6.06451">
        <ele>206</ele>
        <time>2017-04-05T12:09:06Z</time>
      </trkpt>
      <trkpt lat="43.41543" lon="6.06445">
        <ele>206</ele>
        <time>2017-04-05T12:09:07Z</time>
      </trkpt>
      <trkpt lat="43.41547" lon="6.06419">
        <ele>206.80000305176</ele>
        <time>2017-04-05T12:09:12Z</time>
      </trkpt>
      <trkpt lat="43.41551" lon="6.06399">
        <ele>207.60000610352</ele>
        <time>2017-04-05T12:09:16Z</time>
      </trkpt>
      <trkpt lat="43.41552" lon="6.06394">
        <ele>207.80000305176</ele>
        <time>2017-04-05T12:09:17Z</time>
      </trkpt>
      <trkpt lat="43.41557" lon="6.06371">
        <ele>209</ele>
        <time>2017-04-05T12:09:22Z</time>
      </trkpt>
      <trkpt lat="43.41562" lon="6.06354">
        <ele>209.80000305176</ele>
        <time>2017-04-05T12:09:26Z</time>
      </trkpt>
      <trkpt lat="43.41571" lon="6.06337">
        <ele>211.19999694824</ele>
        <time>2017-04-05T12:09:31Z</time>
      </trkpt>
      <trkpt lat="43.41583" lon="6.06318">
        <ele>212.39999389648</ele>
        <time>2017-04-05T12:09:37Z</time>
      </trkpt>
      <trkpt lat="43.41585" lon="6.06287">
        <ele>213.39999389648</ele>
        <time>2017-04-05T12:09:45Z</time>
      </trkpt>
      <trkpt lat="43.41585" lon="6.06283">
        <ele>213.60000610352</ele>
        <time>2017-04-05T12:09:46Z</time>
      </trkpt>
      <trkpt lat="43.41586" lon="6.06273">
        <ele>213.80000305176</ele>
        <time>2017-04-05T12:09:50Z</time>
      </trkpt>
      <trkpt lat="43.41594" lon="6.06264">
        <ele>214.39999389648</ele>
        <time>2017-04-05T12:09:55Z</time>
      </trkpt>
      <trkpt lat="43.416" lon="6.06257">
        <ele>214.80000305176</ele>
        <time>2017-04-05T12:09:58Z</time>
      </trkpt>
      <trkpt lat="43.41604" lon="6.0624">
        <ele>215.39999389648</ele>
        <time>2017-04-05T12:10:03Z</time>
      </trkpt>
      <trkpt lat="43.41607" lon="6.06233">
        <ele>215.39999389648</ele>
        <time>2017-04-05T12:10:05Z</time>
      </trkpt>
      <trkpt lat="43.41607" lon="6.06232">
        <ele>215.39999389648</ele>
        <time>2017-04-05T12:10:06Z</time>
      </trkpt>
      <trkpt lat="43.41607" lon="6.06231">
        <ele>215.19999694824</ele>
        <time>2017-04-05T12:10:09Z</time>
      </trkpt>
      <trkpt lat="43.41607" lon="6.06228">
        <ele>215.39999389648</ele>
        <time>2017-04-05T12:10:11Z</time>
      </trkpt>
      <trkpt lat="43.41607" lon="6.06222">
        <ele>215.39999389648</ele>
        <time>2017-04-05T12:10:14Z</time>
      </trkpt>
      <trkpt lat="43.41607" lon="6.06215">
        <ele>215.60000610352</ele>
        <time>2017-04-05T12:10:16Z</time>
      </trkpt>
      <trkpt lat="43.41603" lon="6.062">
        <ele>215.39999389648</ele>
        <time>2017-04-05T12:10:20Z</time>
      </trkpt>
      <trkpt lat="43.416" lon="6.06192">
        <ele>215.19999694824</ele>
        <time>2017-04-05T12:10:22Z</time>
      </trkpt>
      <trkpt lat="43.416" lon="6.06182">
        <ele>214.80000305176</ele>
        <time>2017-04-05T12:10:24Z</time>
      </trkpt>
      <trkpt lat="43.41603" lon="6.06171">
        <ele>214.19999694824</ele>
        <time>2017-04-05T12:10:26Z</time>
      </trkpt>
      <trkpt lat="43.41606" lon="6.06165">
        <ele>214</ele>
        <time>2017-04-05T12:10:27Z</time>
      </trkpt>
      <trkpt lat="43.4161" lon="6.0616">
        <ele>213.80000305176</ele>
        <time>2017-04-05T12:10:28Z</time>
      </trkpt>
      <trkpt lat="43.4162" lon="6.06146">
        <ele>213.39999389648</ele>
        <time>2017-04-05T12:10:31Z</time>
      </trkpt>
      <trkpt lat="43.41627" lon="6.06128">
        <ele>213.80000305176</ele>
        <time>2017-04-05T12:10:35Z</time>
      </trkpt>
      <trkpt lat="43.41624" lon="6.06116">
        <ele>213.80000305176</ele>
        <time>2017-04-05T12:10:37Z</time>
      </trkpt>
      <trkpt lat="43.41619" lon="6.06103">
        <ele>213.80000305176</ele>
        <time>2017-04-05T12:10:39Z</time>
      </trkpt>
      <trkpt lat="43.41616" lon="6.0609">
        <ele>213.80000305176</ele>
        <time>2017-04-05T12:10:41Z</time>
      </trkpt>
      <trkpt lat="43.41617" lon="6.06056">
        <ele>213.80000305176</ele>
        <time>2017-04-05T12:10:46Z</time>
      </trkpt>
      <trkpt lat="43.41618" lon="6.0605">
        <ele>214</ele>
        <time>2017-04-05T12:10:47Z</time>
      </trkpt>
      <trkpt lat="43.41626" lon="6.05993">
        <ele>215.39999389648</ele>
        <time>2017-04-05T12:10:57Z</time>
      </trkpt>
      <trkpt lat="43.41632" lon="6.05959">
        <ele>216.60000610352</ele>
        <time>2017-04-05T12:11:03Z</time>
      </trkpt>
      <trkpt lat="43.41637" lon="6.05925">
        <ele>217.60000610352</ele>
        <time>2017-04-05T12:11:09Z</time>
      </trkpt>
      <trkpt lat="43.41642" lon="6.0588">
        <ele>218.39999389648</ele>
        <time>2017-04-05T12:11:17Z</time>
      </trkpt>
      <trkpt lat="43.41643" lon="6.05863">
        <ele>218.60000610352</ele>
        <time>2017-04-05T12:11:20Z</time>
      </trkpt>
      <trkpt lat="43.41645" lon="6.05821">
        <ele>219</ele>
        <time>2017-04-05T12:11:27Z</time>
      </trkpt>
      <trkpt lat="43.41646" lon="6.05779">
        <ele>219.39999389648</ele>
        <time>2017-04-05T12:11:34Z</time>
      </trkpt>
      <trkpt lat="43.41646" lon="6.05761">
        <ele>219.39999389648</ele>
        <time>2017-04-05T12:11:37Z</time>
      </trkpt>
      <trkpt lat="43.41645" lon="6.05733">
        <ele>219.39999389648</ele>
        <time>2017-04-05T12:11:42Z</time>
      </trkpt>
      <trkpt lat="43.41643" lon="6.05685">
        <ele>219.39999389648</ele>
        <time>2017-04-05T12:11:50Z</time>
      </trkpt>
      <trkpt lat="43.41639" lon="6.0564">
        <ele>218.39999389648</ele>
        <time>2017-04-05T12:11:57Z</time>
      </trkpt>
      <trkpt lat="43.41628" lon="6.05567">
        <ele>218</ele>
        <time>2017-04-05T12:12:07Z</time>
      </trkpt>
      <trkpt lat="43.41614" lon="6.05509">
        <ele>217.80000305176</ele>
        <time>2017-04-05T12:12:14Z</time>
      </trkpt>
      <trkpt lat="43.41606" lon="6.05484">
        <ele>217.60000610352</ele>
        <time>2017-04-05T12:12:17Z</time>
      </trkpt>
      <trkpt lat="43.41589" lon="6.05425">
        <ele>217.39999389648</ele>
        <time>2017-04-05T12:12:24Z</time>
      </trkpt>
      <trkpt lat="43.41581" lon="6.05402">
        <ele>217.60000610352</ele>
        <time>2017-04-05T12:12:27Z</time>
      </trkpt>
      <trkpt lat="43.4157" lon="6.05373">
        <ele>217.39999389648</ele>
        <time>2017-04-05T12:12:31Z</time>
      </trkpt>
      <trkpt lat="43.41558" lon="6.05342">
        <ele>217</ele>
        <time>2017-04-05T12:12:36Z</time>
      </trkpt>
      <trkpt lat="43.41555" lon="6.05336">
        <ele>217</ele>
        <time>2017-04-05T12:12:37Z</time>
      </trkpt>
      <trkpt lat="43.41552" lon="6.05323">
        <ele>216.60000610352</ele>
        <time>2017-04-05T12:12:39Z</time>
      </trkpt>
      <trkpt lat="43.41536" lon="6.05267">
        <ele>216</ele>
        <time>2017-04-05T12:12:47Z</time>
      </trkpt>
      <trkpt lat="43.4152" lon="6.05231">
        <ele>215.60000610352</ele>
        <time>2017-04-05T12:12:52Z</time>
      </trkpt>
      <trkpt lat="43.41508" lon="6.05205">
        <ele>214.60000610352</ele>
        <time>2017-04-05T12:12:56Z</time>
      </trkpt>
      <trkpt lat="43.41505" lon="6.052">
        <ele>214.39999389648</ele>
        <time>2017-04-05T12:12:57Z</time>
      </trkpt>
      <trkpt lat="43.41496" lon="6.05172">
        <ele>213.60000610352</ele>
        <time>2017-04-05T12:13:02Z</time>
      </trkpt>
      <trkpt lat="43.41499" lon="6.05165">
        <ele>213.39999389648</ele>
        <time>2017-04-05T12:13:04Z</time>
      </trkpt>
      <trkpt lat="43.41508" lon="6.05161">
        <ele>213.39999389648</ele>
        <time>2017-04-05T12:13:07Z</time>
      </trkpt>
      <trkpt lat="43.41515" lon="6.0516">
        <ele>213.80000305176</ele>
        <time>2017-04-05T12:13:09Z</time>
      </trkpt>
      <trkpt lat="43.41529" lon="6.05158">
        <ele>214.39999389648</ele>
        <time>2017-04-05T12:13:13Z</time>
      </trkpt>
      <trkpt lat="43.41536" lon="6.05157">
        <ele>214.39999389648</ele>
        <time>2017-04-05T12:13:15Z</time>
      </trkpt>
      <trkpt lat="43.41544" lon="6.05157">
        <ele>214.60000610352</ele>
        <time>2017-04-05T12:13:17Z</time>
      </trkpt>
      <trkpt lat="43.41553" lon="6.05157">
        <ele>215.19999694824</ele>
        <time>2017-04-05T12:13:20Z</time>
      </trkpt>
      <trkpt lat="43.41557" lon="6.05158">
        <ele>215.60000610352</ele>
        <time>2017-04-05T12:13:21Z</time>
      </trkpt>
      <trkpt lat="43.41562" lon="6.05159">
        <ele>216.19999694824</ele>
        <time>2017-04-05T12:13:23Z</time>
      </trkpt>
      <trkpt lat="43.41568" lon="6.0516">
        <ele>216.60000610352</ele>
        <time>2017-04-05T12:13:25Z</time>
      </trkpt>
      <trkpt lat="43.41574" lon="6.05161">
        <ele>217</ele>
        <time>2017-04-05T12:13:27Z</time>
      </trkpt>
      <trkpt lat="43.41582" lon="6.05163">
        <ele>217.19999694824</ele>
        <time>2017-04-05T12:13:30Z</time>
      </trkpt>
      <trkpt lat="43.41589" lon="6.05164">
        <ele>217.80000305176</ele>
        <time>2017-04-05T12:13:32Z</time>
      </trkpt>
      <trkpt lat="43.41597" lon="6.05165">
        <ele>218.60000610352</ele>
        <time>2017-04-05T12:13:35Z</time>
      </trkpt>
      <trkpt lat="43.41603" lon="6.05166">
        <ele>219.19999694824</ele>
        <time>2017-04-05T12:13:37Z</time>
      </trkpt>
      <trkpt lat="43.41612" lon="6.05167">
        <ele>220</ele>
        <time>2017-04-05T12:13:40Z</time>
      </trkpt>
      <trkpt lat="43.41629" lon="6.05169">
        <ele>220.60000610352</ele>
        <time>2017-04-05T12:13:47Z</time>
      </trkpt>
      <trkpt lat="43.41634" lon="6.05169">
        <ele>221</ele>
        <time>2017-04-05T12:13:49Z</time>
      </trkpt>
      <trkpt lat="43.4165" lon="6.0517">
        <ele>222.60000610352</ele>
        <time>2017-04-05T12:13:56Z</time>
      </trkpt>
      <trkpt lat="43.41652" lon="6.0517">
        <ele>223</ele>
        <time>2017-04-05T12:13:57Z</time>
      </trkpt>
      <trkpt lat="43.41662" lon="6.05168">
        <ele>223.60000610352</ele>
        <time>2017-04-05T12:14:02Z</time>
      </trkpt>
      <trkpt lat="43.41672" lon="6.05161">
        <ele>224.39999389648</ele>
        <time>2017-04-05T12:14:07Z</time>
      </trkpt>
      <trkpt lat="43.41673" lon="6.05159">
        <ele>224.60000610352</ele>
        <time>2017-04-05T12:14:08Z</time>
      </trkpt>
      <trkpt lat="43.41682" lon="6.05147">
        <ele>225.39999389648</ele>
        <time>2017-04-05T12:14:17Z</time>
      </trkpt>
      <trkpt lat="43.41692" lon="6.05135">
        <ele>225.80000305176</ele>
        <time>2017-04-05T12:14:23Z</time>
      </trkpt>
      <trkpt lat="43.417" lon="6.05128">
        <ele>226.39999389648</ele>
        <time>2017-04-05T12:14:27Z</time>
      </trkpt>
      <trkpt lat="43.41708" lon="6.05123">
        <ele>226.80000305176</ele>
        <time>2017-04-05T12:14:31Z</time>
      </trkpt>
      <trkpt lat="43.4172" lon="6.05115">
        <ele>227.60000610352</ele>
        <time>2017-04-05T12:14:37Z</time>
      </trkpt>
      <trkpt lat="43.41724" lon="6.05112">
        <ele>227.80000305176</ele>
        <time>2017-04-05T12:14:39Z</time>
      </trkpt>
      <trkpt lat="43.41732" lon="6.05112">
        <ele>228.19999694824</ele>
        <time>2017-04-05T12:14:43Z</time>
      </trkpt>
      <trkpt lat="43.41735" lon="6.05115">
        <ele>228.60000610352</ele>
        <time>2017-04-05T12:14:45Z</time>
      </trkpt>
      <trkpt lat="43.41735" lon="6.05118">
        <ele>228.80000305176</ele>
        <time>2017-04-05T12:14:46Z</time>
      </trkpt>
      <trkpt lat="43.41736" lon="6.05121">
        <ele>229.19999694824</ele>
        <time>2017-04-05T12:14:47Z</time>
      </trkpt>
      <trkpt lat="43.41737" lon="6.0513">
        <ele>230</ele>
        <time>2017-04-05T12:14:50Z</time>
      </trkpt>
      <trkpt lat="43.41737" lon="6.05155">
        <ele>231</ele>
        <time>2017-04-05T12:14:57Z</time>
      </trkpt>
      <trkpt lat="43.41737" lon="6.05159">
        <ele>231</ele>
        <time>2017-04-05T12:14:58Z</time>
      </trkpt>
      <trkpt lat="43.41743" lon="6.05176">
        <ele>231.19999694824</ele>
        <time>2017-04-05T12:15:04Z</time>
      </trkpt>
      <trkpt lat="43.41749" lon="6.0518">
        <ele>231.19999694824</ele>
        <time>2017-04-05T12:15:07Z</time>
      </trkpt>
      <trkpt lat="43.41772" lon="6.05183">
        <ele>231.39999389648</ele>
        <time>2017-04-05T12:15:17Z</time>
      </trkpt>
      <trkpt lat="43.41794" lon="6.05184">
        <ele>233</ele>
        <time>2017-04-05T12:15:27Z</time>
      </trkpt>
      <trkpt lat="43.41815" lon="6.05186">
        <ele>233.60000610352</ele>
        <time>2017-04-05T12:15:37Z</time>
      </trkpt>
      <trkpt lat="43.41825" lon="6.05186">
        <ele>234.39999389648</ele>
        <time>2017-04-05T12:15:42Z</time>
      </trkpt>
      <trkpt lat="43.4184" lon="6.05187">
        <ele>235.39999389648</ele>
        <time>2017-04-05T12:15:48Z</time>
      </trkpt>
      <trkpt lat="43.41852" lon="6.05186">
        <ele>236.39999389648</ele>
        <time>2017-04-05T12:15:53Z</time>
      </trkpt>
      <trkpt lat="43.41861" lon="6.05183">
        <ele>236.80000305176</ele>
        <time>2017-04-05T12:15:57Z</time>
      </trkpt>
      <trkpt lat="43.4187" lon="6.0518">
        <ele>237.39999389648</ele>
        <time>2017-04-05T12:16:01Z</time>
      </trkpt>
      <trkpt lat="43.41879" lon="6.05176">
        <ele>238.19999694824</ele>
        <time>2017-04-05T12:16:07Z</time>
      </trkpt>
      <trkpt lat="43.4188" lon="6.05176">
        <ele>238.39999389648</ele>
        <time>2017-04-05T12:16:08Z</time>
      </trkpt>
      <trkpt lat="43.41883" lon="6.05181">
        <ele>239.19999694824</ele>
        <time>2017-04-05T12:16:17Z</time>
      </trkpt>
      <trkpt lat="43.41885" lon="6.05182">
        <ele>239.39999389648</ele>
        <time>2017-04-05T12:16:20Z</time>
      </trkpt>
      <trkpt lat="43.41889" lon="6.05186">
        <ele>240.39999389648</ele>
        <time>2017-04-05T12:16:28Z</time>
      </trkpt>
      <trkpt lat="43.4189" lon="6.05183">
        <ele>240.60000610352</ele>
        <time>2017-04-05T12:16:29Z</time>
      </trkpt>
      <trkpt lat="43.41933" lon="6.05166">
        <ele>241</ele>
        <time>2017-04-05T12:16:33Z</time>
      </trkpt>
      <trkpt lat="43.41941" lon="6.05159">
        <ele>241.60000610352</ele>
        <time>2017-04-05T12:16:37Z</time>
      </trkpt>
      <trkpt lat="43.41956" lon="6.05148">
        <ele>242.60000610352</ele>
        <time>2017-04-05T12:16:44Z</time>
      </trkpt>
      <trkpt lat="43.41963" lon="6.05144">
        <ele>243.19999694824</ele>
        <time>2017-04-05T12:16:47Z</time>
      </trkpt>
      <trkpt lat="43.41967" lon="6.05142">
        <ele>243.60000610352</ele>
        <time>2017-04-05T12:16:49Z</time>
      </trkpt>
      <trkpt lat="43.42015" lon="6.0513">
        <ele>245.60000610352</ele>
        <time>2017-04-05T12:17:07Z</time>
      </trkpt>
      <trkpt lat="43.42026" lon="6.05127">
        <ele>245.60000610352</ele>
        <time>2017-04-05T12:17:11Z</time>
      </trkpt>
      <trkpt lat="43.42043" lon="6.05124">
        <ele>246.39999389648</ele>
        <time>2017-04-05T12:17:17Z</time>
      </trkpt>
      <trkpt lat="43.42052" lon="6.05122">
        <ele>246.80000305176</ele>
        <time>2017-04-05T12:17:20Z</time>
      </trkpt>
      <trkpt lat="43.42072" lon="6.05119">
        <ele>247.39999389648</ele>
        <time>2017-04-05T12:17:27Z</time>
      </trkpt>
      <trkpt lat="43.4208" lon="6.05119">
        <ele>247.80000305176</ele>
        <time>2017-04-05T12:17:30Z</time>
      </trkpt>
      <trkpt lat="43.42099" lon="6.0512">
        <ele>248.80000305176</ele>
        <time>2017-04-05T12:17:36Z</time>
      </trkpt>
      <trkpt lat="43.42102" lon="6.0512">
        <ele>248.80000305176</ele>
        <time>2017-04-05T12:17:37Z</time>
      </trkpt>
      <trkpt lat="43.42119" lon="6.05122">
        <ele>250</ele>
        <time>2017-04-05T12:17:43Z</time>
      </trkpt>
      <trkpt lat="43.42126" lon="6.05128">
        <ele>250.60000610352</ele>
        <time>2017-04-05T12:17:47Z</time>
      </trkpt>
      <trkpt lat="43.4213" lon="6.05133">
        <ele>250.80000305176</ele>
        <time>2017-04-05T12:17:51Z</time>
      </trkpt>
      <trkpt lat="43.42131" lon="6.05133">
        <ele>251</ele>
        <time>2017-04-05T12:17:54Z</time>
      </trkpt>
      <trkpt lat="43.42131" lon="6.05133">
        <ele>251</ele>
        <time>2017-04-05T12:17:57Z</time>
      </trkpt>
      <trkpt lat="43.42131" lon="6.05134">
        <ele>250.80000305176</ele>
        <time>2017-04-05T12:18:01Z</time>
      </trkpt>
      <trkpt lat="43.42131" lon="6.05134">
        <ele>250.60000610352</ele>
        <time>2017-04-05T12:18:06Z</time>
      </trkpt>
      <trkpt lat="43.42132" lon="6.05135">
        <ele>250.60000610352</ele>
        <time>2017-04-05T12:18:07Z</time>
      </trkpt>
      <trkpt lat="43.42132" lon="6.05135">
        <ele>250.39999389648</ele>
        <time>2017-04-05T12:18:14Z</time>
      </trkpt>
      <trkpt lat="43.42131" lon="6.05136">
        <ele>250.60000610352</ele>
        <time>2017-04-05T12:18:17Z</time>
      </trkpt>
      <trkpt lat="43.4213" lon="6.05138">
        <ele>250.19999694824</ele>
        <time>2017-04-05T12:18:28Z</time>
      </trkpt>
      <trkpt lat="43.42129" lon="6.05137">
        <ele>250.60000610352</ele>
        <time>2017-04-05T12:18:32Z</time>
      </trkpt>
      <trkpt lat="43.4213" lon="6.05139">
        <ele>251</ele>
        <time>2017-04-05T12:18:37Z</time>
      </trkpt>
      <trkpt lat="43.4213" lon="6.0514">
        <ele>250.80000305176</ele>
        <time>2017-04-05T12:18:44Z</time>
      </trkpt>
      <trkpt lat="43.4213" lon="6.05139">
        <ele>250.80000305176</ele>
        <time>2017-04-05T12:18:57Z</time>
      </trkpt>
      <trkpt lat="43.42131" lon="6.05138">
        <ele>250.39999389648</ele>
        <time>2017-04-05T12:19:07Z</time>
      </trkpt>
      <trkpt lat="43.42131" lon="6.05137">
        <ele>250.39999389648</ele>
        <time>2017-04-05T12:19:13Z</time>
      </trkpt>
      <trkpt lat="43.42131" lon="6.05137">
        <ele>250.39999389648</ele>
        <time>2017-04-05T12:19:17Z</time>
      </trkpt>
      <trkpt lat="43.42131" lon="6.05136">
        <ele>251.19999694824</ele>
        <time>2017-04-05T12:19:57Z</time>
      </trkpt>
      <trkpt lat="43.42131" lon="6.05135">
        <ele>251.19999694824</ele>
        <time>2017-04-05T12:20:07Z</time>
      </trkpt>
      <trkpt lat="43.42131" lon="6.05136">
        <ele>251.19999694824</ele>
        <time>2017-04-05T12:20:22Z</time>
      </trkpt>
      <trkpt lat="43.42131" lon="6.05135">
        <ele>251.19999694824</ele>
        <time>2017-04-05T12:20:28Z</time>
      </trkpt>
      <trkpt lat="43.42132" lon="6.05135">
        <ele>251.19999694824</ele>
        <time>2017-04-05T12:20:36Z</time>
      </trkpt>
      <trkpt lat="43.42134" lon="6.05138">
        <ele>251.19999694824</ele>
        <time>2017-04-05T12:20:38Z</time>
      </trkpt>
      <trkpt lat="43.42136" lon="6.0514">
        <ele>251.19999694824</ele>
        <time>2017-04-05T12:20:39Z</time>
      </trkpt>
      <trkpt lat="43.4214" lon="6.05147">
        <ele>251.19999694824</ele>
        <time>2017-04-05T12:20:42Z</time>
      </trkpt>
      <trkpt lat="43.42149" lon="6.05158">
        <ele>251.39999389648</ele>
        <time>2017-04-05T12:20:47Z</time>
      </trkpt>
      <trkpt lat="43.42151" lon="6.0516">
        <ele>251.39999389648</ele>
        <time>2017-04-05T12:20:48Z</time>
      </trkpt>
      <trkpt lat="43.42167" lon="6.05171">
        <ele>251.80000305176</ele>
        <time>2017-04-05T12:20:57Z</time>
      </trkpt>
      <trkpt lat="43.42184" lon="6.0518">
        <ele>252</ele>
        <time>2017-04-05T12:21:07Z</time>
      </trkpt>
      <trkpt lat="43.42187" lon="6.05181">
        <ele>252</ele>
        <time>2017-04-05T12:21:08Z</time>
      </trkpt>
      <trkpt lat="43.42195" lon="6.05186">
        <ele>252.39999389648</ele>
        <time>2017-04-05T12:21:12Z</time>
      </trkpt>
      <trkpt lat="43.42206" lon="6.05192">
        <ele>252.80000305176</ele>
        <time>2017-04-05T12:21:17Z</time>
      </trkpt>
      <trkpt lat="43.42223" lon="6.052">
        <ele>254.19999694824</ele>
        <time>2017-04-05T12:21:24Z</time>
      </trkpt>
      <trkpt lat="43.4223" lon="6.0521">
        <ele>254.80000305176</ele>
        <time>2017-04-05T12:21:28Z</time>
      </trkpt>
      <trkpt lat="43.42241" lon="6.05219">
        <ele>255.39999389648</ele>
        <time>2017-04-05T12:21:33Z</time>
      </trkpt>
      <trkpt lat="43.4225" lon="6.0522">
        <ele>255.80000305176</ele>
        <time>2017-04-05T12:21:37Z</time>
      </trkpt>
      <trkpt lat="43.42263" lon="6.05219">
        <ele>256.39999389648</ele>
        <time>2017-04-05T12:21:42Z</time>
      </trkpt>
      <trkpt lat="43.42279" lon="6.0522">
        <ele>257.20001220703</ele>
        <time>2017-04-05T12:21:48Z</time>
      </trkpt>
      <trkpt lat="43.42297" lon="6.05226">
        <ele>257.39999389648</ele>
        <time>2017-04-05T12:21:55Z</time>
      </trkpt>
      <trkpt lat="43.42303" lon="6.05228">
        <ele>258</ele>
        <time>2017-04-05T12:21:57Z</time>
      </trkpt>
      <trkpt lat="43.4231" lon="6.05229">
        <ele>258.39999389648</ele>
        <time>2017-04-05T12:22:00Z</time>
      </trkpt>
      <trkpt lat="43.42324" lon="6.05232">
        <ele>259.39999389648</ele>
        <time>2017-04-05T12:22:06Z</time>
      </trkpt>
      <trkpt lat="43.42337" lon="6.05235">
        <ele>260.60000610352</ele>
        <time>2017-04-05T12:22:12Z</time>
      </trkpt>
      <trkpt lat="43.42345" lon="6.05237">
        <ele>261.60000610352</ele>
        <time>2017-04-05T12:22:16Z</time>
      </trkpt>
      <trkpt lat="43.4235" lon="6.05237">
        <ele>262</ele>
        <time>2017-04-05T12:22:18Z</time>
      </trkpt>
      <trkpt lat="43.42356" lon="6.05236">
        <ele>262.60000610352</ele>
        <time>2017-04-05T12:22:21Z</time>
      </trkpt>
      <trkpt lat="43.42371" lon="6.05231">
        <ele>263.20001220703</ele>
        <time>2017-04-05T12:22:28Z</time>
      </trkpt>
      <trkpt lat="43.42379" lon="6.05231">
        <ele>263.79998779297</ele>
        <time>2017-04-05T12:22:32Z</time>
      </trkpt>
      <trkpt lat="43.4239" lon="6.05229">
        <ele>264.79998779297</ele>
        <time>2017-04-05T12:22:38Z</time>
      </trkpt>
      <trkpt lat="43.42406" lon="6.05226">
        <ele>265.39999389648</ele>
        <time>2017-04-05T12:22:47Z</time>
      </trkpt>
      <trkpt lat="43.42428" lon="6.05227">
        <ele>265.60000610352</ele>
        <time>2017-04-05T12:22:58Z</time>
      </trkpt>
      <trkpt lat="43.42442" lon="6.05225">
        <ele>265.79998779297</ele>
        <time>2017-04-05T12:23:05Z</time>
      </trkpt>
      <trkpt lat="43.42448" lon="6.05223">
        <ele>266.39999389648</ele>
        <time>2017-04-05T12:23:08Z</time>
      </trkpt>
      <trkpt lat="43.42453" lon="6.05222">
        <ele>266.79998779297</ele>
        <time>2017-04-05T12:23:10Z</time>
      </trkpt>
      <trkpt lat="43.42459" lon="6.05219">
        <ele>268</ele>
        <time>2017-04-05T12:23:14Z</time>
      </trkpt>
      <trkpt lat="43.42462" lon="6.05218">
        <ele>268.39999389648</ele>
        <time>2017-04-05T12:23:16Z</time>
      </trkpt>
      <trkpt lat="43.42465" lon="6.05217">
        <ele>269.20001220703</ele>
        <time>2017-04-05T12:23:18Z</time>
      </trkpt>
      <trkpt lat="43.42472" lon="6.05218">
        <ele>270</ele>
        <time>2017-04-05T12:23:22Z</time>
      </trkpt>
      <trkpt lat="43.4248" lon="6.0522">
        <ele>270.20001220703</ele>
        <time>2017-04-05T12:23:26Z</time>
      </trkpt>
      <trkpt lat="43.42485" lon="6.05222">
        <ele>270.20001220703</ele>
        <time>2017-04-05T12:23:28Z</time>
      </trkpt>
      <trkpt lat="43.4249" lon="6.05224">
        <ele>270.39999389648</ele>
        <time>2017-04-05T12:23:30Z</time>
      </trkpt>
      <trkpt lat="43.42496" lon="6.05227">
        <ele>270.20001220703</ele>
        <time>2017-04-05T12:23:32Z</time>
      </trkpt>
      <trkpt lat="43.42511" lon="6.05233">
        <ele>269.60000610352</ele>
        <time>2017-04-05T12:23:38Z</time>
      </trkpt>
      <trkpt lat="43.42533" lon="6.05232">
        <ele>269.60000610352</ele>
        <time>2017-04-05T12:23:48Z</time>
      </trkpt>
      <trkpt lat="43.4255" lon="6.05227">
        <ele>271.20001220703</ele>
        <time>2017-04-05T12:23:57Z</time>
      </trkpt>
      <trkpt lat="43.42554" lon="6.05226">
        <ele>271.39999389648</ele>
        <time>2017-04-05T12:23:59Z</time>
      </trkpt>
      <trkpt lat="43.42563" lon="6.05228">
        <ele>272.20001220703</ele>
        <time>2017-04-05T12:24:03Z</time>
      </trkpt>
      <trkpt lat="43.42575" lon="6.05231">
        <ele>272.60000610352</ele>
        <time>2017-04-05T12:24:08Z</time>
      </trkpt>
      <trkpt lat="43.42585" lon="6.05238">
        <ele>272.20001220703</ele>
        <time>2017-04-05T12:24:12Z</time>
      </trkpt>
      <trkpt lat="43.42598" lon="6.05247">
        <ele>272</ele>
        <time>2017-04-05T12:24:18Z</time>
      </trkpt>
      <trkpt lat="43.42617" lon="6.05264">
        <ele>272.79998779297</ele>
        <time>2017-04-05T12:24:28Z</time>
      </trkpt>
      <trkpt lat="43.4262" lon="6.05265">
        <ele>273.60000610352</ele>
        <time>2017-04-05T12:24:30Z</time>
      </trkpt>
      <trkpt lat="43.4263" lon="6.05273">
        <ele>274.20001220703</ele>
        <time>2017-04-05T12:24:39Z</time>
      </trkpt>
      <trkpt lat="43.4263" lon="6.05273">
        <ele>274.39999389648</ele>
        <time>2017-04-05T12:24:43Z</time>
      </trkpt>
      <trkpt lat="43.4263" lon="6.05273">
        <ele>274.39999389648</ele>
        <time>2017-04-05T12:24:46Z</time>
      </trkpt>
      <trkpt lat="43.4263" lon="6.05273">
        <ele>274.60000610352</ele>
        <time>2017-04-05T12:24:48Z</time>
      </trkpt>
      <trkpt lat="43.4263" lon="6.05274">
        <ele>274.79998779297</ele>
        <time>2017-04-05T12:24:53Z</time>
      </trkpt>
      <trkpt lat="43.4263" lon="6.05273">
        <ele>274.79998779297</ele>
        <time>2017-04-05T12:24:58Z</time>
      </trkpt>
      <trkpt lat="43.4263" lon="6.05273">
        <ele>274.79998779297</ele>
        <time>2017-04-05T12:25:04Z</time>
      </trkpt>
      <trkpt lat="43.4263" lon="6.05274">
        <ele>274.60000610352</ele>
        <time>2017-04-05T12:25:09Z</time>
      </trkpt>
      <trkpt lat="43.4263" lon="6.05275">
        <ele>274.39999389648</ele>
        <time>2017-04-05T12:25:17Z</time>
      </trkpt>
      <trkpt lat="43.4263" lon="6.05275">
        <ele>274.39999389648</ele>
        <time>2017-04-05T12:25:19Z</time>
      </trkpt>
      <trkpt lat="43.4263" lon="6.05274">
        <ele>274.39999389648</ele>
        <time>2017-04-05T12:25:29Z</time>
      </trkpt>
      <trkpt lat="43.42632" lon="6.05274">
        <ele>274.60000610352</ele>
        <time>2017-04-05T12:25:32Z</time>
      </trkpt>
      <trkpt lat="43.42634" lon="6.05273">
        <ele>274.60000610352</ele>
        <time>2017-04-05T12:25:34Z</time>
      </trkpt>
      <trkpt lat="43.42643" lon="6.05267">
        <ele>274.60000610352</ele>
        <time>2017-04-05T12:25:39Z</time>
      </trkpt>
      <trkpt lat="43.42649" lon="6.05262">
        <ele>274.79998779297</ele>
        <time>2017-04-05T12:25:41Z</time>
      </trkpt>
      <trkpt lat="43.42653" lon="6.05257">
        <ele>275.20001220703</ele>
        <time>2017-04-05T12:25:43Z</time>
      </trkpt>
      <trkpt lat="43.42659" lon="6.05252">
        <ele>275.79998779297</ele>
        <time>2017-04-05T12:25:45Z</time>
      </trkpt>
      <trkpt lat="43.42666" lon="6.05247">
        <ele>276</ele>
        <time>2017-04-05T12:25:47Z</time>
      </trkpt>
      <trkpt lat="43.42672" lon="6.05243">
        <ele>276.39999389648</ele>
        <time>2017-04-05T12:25:49Z</time>
      </trkpt>
      <trkpt lat="43.42675" lon="6.05241">
        <ele>276.60000610352</ele>
        <time>2017-04-05T12:25:50Z</time>
      </trkpt>
      <trkpt lat="43.4268" lon="6.05238">
        <ele>277</ele>
        <time>2017-04-05T12:25:52Z</time>
      </trkpt>
      <trkpt lat="43.42682" lon="6.05236">
        <ele>277.20001220703</ele>
        <time>2017-04-05T12:25:53Z</time>
      </trkpt>
      <trkpt lat="43.42683" lon="6.05236">
        <ele>277.60000610352</ele>
        <time>2017-04-05T12:25:54Z</time>
      </trkpt>
      <trkpt lat="43.42685" lon="6.05235">
        <ele>278.20001220703</ele>
        <time>2017-04-05T12:25:55Z</time>
      </trkpt>
      <trkpt lat="43.42688" lon="6.05233">
        <ele>278.60000610352</ele>
        <time>2017-04-05T12:25:56Z</time>
      </trkpt>
      <trkpt lat="43.42693" lon="6.05231">
        <ele>278.79998779297</ele>
        <time>2017-04-05T12:25:58Z</time>
      </trkpt>
      <trkpt lat="43.42696" lon="6.05229">
        <ele>278.79998779297</ele>
        <time>2017-04-05T12:26:00Z</time>
      </trkpt>
      <trkpt lat="43.427" lon="6.05227">
        <ele>279.39999389648</ele>
        <time>2017-04-05T12:26:02Z</time>
      </trkpt>
      <trkpt lat="43.42704" lon="6.05223">
        <ele>280.20001220703</ele>
        <time>2017-04-05T12:26:04Z</time>
      </trkpt>
      <trkpt lat="43.42707" lon="6.0522">
        <ele>280.60000610352</ele>
        <time>2017-04-05T12:26:05Z</time>
      </trkpt>
      <trkpt lat="43.42714" lon="6.05211">
        <ele>281.20001220703</ele>
        <time>2017-04-05T12:26:08Z</time>
      </trkpt>
      <trkpt lat="43.42716" lon="6.05208">
        <ele>281.60000610352</ele>
        <time>2017-04-05T12:26:09Z</time>
      </trkpt>
      <trkpt lat="43.42718" lon="6.05205">
        <ele>282</ele>
        <time>2017-04-05T12:26:10Z</time>
      </trkpt>
      <trkpt lat="43.42723" lon="6.05194">
        <ele>283</ele>
        <time>2017-04-05T12:26:14Z</time>
      </trkpt>
      <trkpt lat="43.42728" lon="6.05181">
        <ele>284</ele>
        <time>2017-04-05T12:26:19Z</time>
      </trkpt>
      <trkpt lat="43.42728" lon="6.05179">
        <ele>284.20001220703</ele>
        <time>2017-04-05T12:26:20Z</time>
      </trkpt>
      <trkpt lat="43.42731" lon="6.05171">
        <ele>285.20001220703</ele>
        <time>2017-04-05T12:26:25Z</time>
      </trkpt>
      <trkpt lat="43.42735" lon="6.05164">
        <ele>285.39999389648</ele>
        <time>2017-04-05T12:26:29Z</time>
      </trkpt>
      <trkpt lat="43.42739" lon="6.05157">
        <ele>286.20001220703</ele>
        <time>2017-04-05T12:26:34Z</time>
      </trkpt>
      <trkpt lat="43.42744" lon="6.05147">
        <ele>286.79998779297</ele>
        <time>2017-04-05T12:26:39Z</time>
      </trkpt>
      <trkpt lat="43.42751" lon="6.05132">
        <ele>287</ele>
        <time>2017-04-05T12:26:46Z</time>
      </trkpt>
      <trkpt lat="43.42754" lon="6.05125">
        <ele>287.20001220703</ele>
        <time>2017-04-05T12:26:49Z</time>
      </trkpt>
      <trkpt lat="43.42754" lon="6.05122">
        <ele>287.39999389648</ele>
        <time>2017-04-05T12:26:50Z</time>
      </trkpt>
      <trkpt lat="43.42749" lon="6.05101">
        <ele>288.20001220703</ele>
        <time>2017-04-05T12:26:59Z</time>
      </trkpt>
      <trkpt lat="43.42748" lon="6.05097">
        <ele>288.60000610352</ele>
        <time>2017-04-05T12:27:01Z</time>
      </trkpt>
      <trkpt lat="43.42749" lon="6.05076">
        <ele>289.60000610352</ele>
        <time>2017-04-05T12:27:09Z</time>
      </trkpt>
      <trkpt lat="43.42749" lon="6.05074">
        <ele>289.79998779297</ele>
        <time>2017-04-05T12:27:10Z</time>
      </trkpt>
      <trkpt lat="43.42756" lon="6.0505">
        <ele>290.60000610352</ele>
        <time>2017-04-05T12:27:20Z</time>
      </trkpt>
      <trkpt lat="43.42765" lon="6.05023">
        <ele>291.60000610352</ele>
        <time>2017-04-05T12:27:30Z</time>
      </trkpt>
      <trkpt lat="43.42762" lon="6.04996">
        <ele>292.20001220703</ele>
        <time>2017-04-05T12:27:40Z</time>
      </trkpt>
      <trkpt lat="43.42761" lon="6.04978">
        <ele>292.79998779297</ele>
        <time>2017-04-05T12:27:47Z</time>
      </trkpt>
      <trkpt lat="43.42761" lon="6.0497">
        <ele>293</ele>
        <time>2017-04-05T12:27:50Z</time>
      </trkpt>
      <trkpt lat="43.42759" lon="6.04952">
        <ele>293.79998779297</ele>
        <time>2017-04-05T12:27:57Z</time>
      </trkpt>
      <trkpt lat="43.4276" lon="6.04945">
        <ele>294.20001220703</ele>
        <time>2017-04-05T12:28:00Z</time>
      </trkpt>
      <trkpt lat="43.42758" lon="6.04926">
        <ele>294.79998779297</ele>
        <time>2017-04-05T12:28:08Z</time>
      </trkpt>
      <trkpt lat="43.42757" lon="6.04922">
        <ele>295.39999389648</ele>
        <time>2017-04-05T12:28:10Z</time>
      </trkpt>
      <trkpt lat="43.42756" lon="6.04911">
        <ele>296</ele>
        <time>2017-04-05T12:28:15Z</time>
      </trkpt>
      <trkpt lat="43.42756" lon="6.04909">
        <ele>296</ele>
        <time>2017-04-05T12:28:16Z</time>
      </trkpt>
      <trkpt lat="43.4276" lon="6.04902">
        <ele>296</ele>
        <time>2017-04-05T12:28:20Z</time>
      </trkpt>
      <trkpt lat="43.42767" lon="6.04885">
        <ele>297</ele>
        <time>2017-04-05T12:28:29Z</time>
      </trkpt>
      <trkpt lat="43.42768" lon="6.04883">
        <ele>297.20001220703</ele>
        <time>2017-04-05T12:28:30Z</time>
      </trkpt>
      <trkpt lat="43.42772" lon="6.04871">
        <ele>298.20001220703</ele>
        <time>2017-04-05T12:28:36Z</time>
      </trkpt>
      <trkpt lat="43.42774" lon="6.04862">
        <ele>298.79998779297</ele>
        <time>2017-04-05T12:28:41Z</time>
      </trkpt>
      <trkpt lat="43.42776" lon="6.04854">
        <ele>299.20001220703</ele>
        <time>2017-04-05T12:28:45Z</time>
      </trkpt>
      <trkpt lat="43.42778" lon="6.04847">
        <ele>299.79998779297</ele>
        <time>2017-04-05T12:28:50Z</time>
      </trkpt>
      <trkpt lat="43.4278" lon="6.04837">
        <ele>300.20001220703</ele>
        <time>2017-04-05T12:28:57Z</time>
      </trkpt>
      <trkpt lat="43.42783" lon="6.04834">
        <ele>300.20001220703</ele>
        <time>2017-04-05T12:29:00Z</time>
      </trkpt>
      <trkpt lat="43.42785" lon="6.04833">
        <ele>300.20001220703</ele>
        <time>2017-04-05T12:29:02Z</time>
      </trkpt>
      <trkpt lat="43.42788" lon="6.04833">
        <ele>300.20001220703</ele>
        <time>2017-04-05T12:29:08Z</time>
      </trkpt>
      <trkpt lat="43.42788" lon="6.04833">
        <ele>300</ele>
        <time>2017-04-05T12:29:11Z</time>
      </trkpt>
      <trkpt lat="43.42788" lon="6.04833">
        <ele>300</ele>
        <time>2017-04-05T12:29:13Z</time>
      </trkpt>
      <trkpt lat="43.42788" lon="6.04833">
        <ele>300</ele>
        <time>2017-04-05T12:29:15Z</time>
      </trkpt>
      <trkpt lat="43.42788" lon="6.04833">
        <ele>300</ele>
        <time>2017-04-05T12:29:18Z</time>
      </trkpt>
      <trkpt lat="43.42788" lon="6.04833">
        <ele>300.39999389648</ele>
        <time>2017-04-05T12:29:26Z</time>
      </trkpt>
      <trkpt lat="43.42788" lon="6.04834">
        <ele>300.39999389648</ele>
        <time>2017-04-05T12:29:31Z</time>
      </trkpt>
      <trkpt lat="43.42788" lon="6.04834">
        <ele>300.39999389648</ele>
        <time>2017-04-05T12:29:37Z</time>
      </trkpt>
      <trkpt lat="43.42788" lon="6.04834">
        <ele>300.39999389648</ele>
        <time>2017-04-05T12:29:42Z</time>
      </trkpt>
      <trkpt lat="43.42788" lon="6.04834">
        <ele>300</ele>
        <time>2017-04-05T12:30:01Z</time>
      </trkpt>
      <trkpt lat="43.42788" lon="6.04835">
        <ele>300.39999389648</ele>
        <time>2017-04-05T12:30:12Z</time>
      </trkpt>
      <trkpt lat="43.42788" lon="6.04835">
        <ele>300.60000610352</ele>
        <time>2017-04-05T12:30:22Z</time>
      </trkpt>
      <trkpt lat="43.42788" lon="6.04835">
        <ele>301.20001220703</ele>
        <time>2017-04-05T12:30:38Z</time>
      </trkpt>
      <trkpt lat="43.42788" lon="6.04834">
        <ele>301.20001220703</ele>
        <time>2017-04-05T12:30:42Z</time>
      </trkpt>
      <trkpt lat="43.42788" lon="6.04834">
        <ele>300.20001220703</ele>
        <time>2017-04-05T12:30:53Z</time>
      </trkpt>
      <trkpt lat="43.42789" lon="6.04835">
        <ele>300.39999389648</ele>
        <time>2017-04-05T12:30:59Z</time>
      </trkpt>
      <trkpt lat="43.42791" lon="6.04836">
        <ele>300.20001220703</ele>
        <time>2017-04-05T12:31:02Z</time>
      </trkpt>
      <trkpt lat="43.42793" lon="6.04837">
        <ele>300.20001220703</ele>
        <time>2017-04-05T12:31:03Z</time>
      </trkpt>
      <trkpt lat="43.42795" lon="6.04839">
        <ele>300.20001220703</ele>
        <time>2017-04-05T12:31:04Z</time>
      </trkpt>
      <trkpt lat="43.42807" lon="6.0485">
        <ele>300.39999389648</ele>
        <time>2017-04-05T12:31:10Z</time>
      </trkpt>
      <trkpt lat="43.42815" lon="6.04856">
        <ele>300.60000610352</ele>
        <time>2017-04-05T12:31:13Z</time>
      </trkpt>
      <trkpt lat="43.42818" lon="6.04857">
        <ele>300.79998779297</ele>
        <time>2017-04-05T12:31:14Z</time>
      </trkpt>
      <trkpt lat="43.42828" lon="6.04857">
        <ele>302.79998779297</ele>
        <time>2017-04-05T12:31:18Z</time>
      </trkpt>
      <trkpt lat="43.42831" lon="6.04857">
        <ele>303.20001220703</ele>
        <time>2017-04-05T12:31:19Z</time>
      </trkpt>
      <trkpt lat="43.42836" lon="6.04858">
        <ele>304</ele>
        <time>2017-04-05T12:31:21Z</time>
      </trkpt>
      <trkpt lat="43.42839" lon="6.04858">
        <ele>304.60000610352</ele>
        <time>2017-04-05T12:31:22Z</time>
      </trkpt>
      <trkpt lat="43.42841" lon="6.04859">
        <ele>304.79998779297</ele>
        <time>2017-04-05T12:31:23Z</time>
      </trkpt>
      <trkpt lat="43.42846" lon="6.04863">
        <ele>305.39999389648</ele>
        <time>2017-04-05T12:31:25Z</time>
      </trkpt>
      <trkpt lat="43.42848" lon="6.04865">
        <ele>305.60000610352</ele>
        <time>2017-04-05T12:31:26Z</time>
      </trkpt>
      <trkpt lat="43.42852" lon="6.04868">
        <ele>306</ele>
        <time>2017-04-05T12:31:28Z</time>
      </trkpt>
      <trkpt lat="43.42856" lon="6.04874">
        <ele>306.20001220703</ele>
        <time>2017-04-05T12:31:30Z</time>
      </trkpt>
      <trkpt lat="43.4286" lon="6.0488">
        <ele>306.20001220703</ele>
        <time>2017-04-05T12:31:32Z</time>
      </trkpt>
      <trkpt lat="43.42862" lon="6.04883">
        <ele>306.39999389648</ele>
        <time>2017-04-05T12:31:33Z</time>
      </trkpt>
      <trkpt lat="43.42867" lon="6.04891">
        <ele>306.79998779297</ele>
        <time>2017-04-05T12:31:36Z</time>
      </trkpt>
      <trkpt lat="43.42875" lon="6.04906">
        <ele>306.60000610352</ele>
        <time>2017-04-05T12:31:41Z</time>
      </trkpt>
      <trkpt lat="43.42877" lon="6.04912">
        <ele>306.39999389648</ele>
        <time>2017-04-05T12:31:43Z</time>
      </trkpt>
      <trkpt lat="43.42881" lon="6.0492">
        <ele>306.20001220703</ele>
        <time>2017-04-05T12:31:46Z</time>
      </trkpt>
      <trkpt lat="43.42889" lon="6.04925">
        <ele>306.20001220703</ele>
        <time>2017-04-05T12:31:51Z</time>
      </trkpt>
      <trkpt lat="43.42893" lon="6.04924">
        <ele>306.20001220703</ele>
        <time>2017-04-05T12:31:53Z</time>
      </trkpt>
      <trkpt lat="43.42903" lon="6.04923">
        <ele>305.79998779297</ele>
        <time>2017-04-05T12:31:58Z</time>
      </trkpt>
      <trkpt lat="43.42915" lon="6.04921">
        <ele>306.20001220703</ele>
        <time>2017-04-05T12:32:04Z</time>
      </trkpt>
      <trkpt lat="43.42921" lon="6.0492">
        <ele>306.20001220703</ele>
        <time>2017-04-05T12:32:07Z</time>
      </trkpt>
      <trkpt lat="43.42926" lon="6.04921">
        <ele>306.60000610352</ele>
        <time>2017-04-05T12:32:10Z</time>
      </trkpt>
      <trkpt lat="43.42928" lon="6.04919">
        <ele>307</ele>
        <time>2017-04-05T12:32:15Z</time>
      </trkpt>
      <trkpt lat="43.42928" lon="6.04918">
        <ele>307</ele>
        <time>2017-04-05T12:32:20Z</time>
      </trkpt>
      <trkpt lat="43.42928" lon="6.04918">
        <ele>306.79998779297</ele>
        <time>2017-04-05T12:32:25Z</time>
      </trkpt>
      <trkpt lat="43.42928" lon="6.04918">
        <ele>306.79998779297</ele>
        <time>2017-04-05T12:32:38Z</time>
      </trkpt>
      <trkpt lat="43.42928" lon="6.04918">
        <ele>306.79998779297</ele>
        <time>2017-04-05T12:32:42Z</time>
      </trkpt>
      <trkpt lat="43.42929" lon="6.04917">
        <ele>306.79998779297</ele>
        <time>2017-04-05T12:32:46Z</time>
      </trkpt>
      <trkpt lat="43.42929" lon="6.04915">
        <ele>306.79998779297</ele>
        <time>2017-04-05T12:32:47Z</time>
      </trkpt>
      <trkpt lat="43.4293" lon="6.04912">
        <ele>306.79998779297</ele>
        <time>2017-04-05T12:32:49Z</time>
      </trkpt>
      <trkpt lat="43.42934" lon="6.04891">
        <ele>305.79998779297</ele>
        <time>2017-04-05T12:32:56Z</time>
      </trkpt>
      <trkpt lat="43.42936" lon="6.04888">
        <ele>305.60000610352</ele>
        <time>2017-04-05T12:32:57Z</time>
      </trkpt>
      <trkpt lat="43.42942" lon="6.04879">
        <ele>304.20001220703</ele>
        <time>2017-04-05T12:33:00Z</time>
      </trkpt>
      <trkpt lat="43.42946" lon="6.04876">
        <ele>303.60000610352</ele>
        <time>2017-04-05T12:33:01Z</time>
      </trkpt>
      <trkpt lat="43.4295" lon="6.04873">
        <ele>303</ele>
        <time>2017-04-05T12:33:02Z</time>
      </trkpt>
      <trkpt lat="43.42956" lon="6.04868">
        <ele>301.79998779297</ele>
        <time>2017-04-05T12:33:04Z</time>
      </trkpt>
      <trkpt lat="43.42963" lon="6.04862">
        <ele>300.60000610352</ele>
        <time>2017-04-05T12:33:06Z</time>
      </trkpt>
      <trkpt lat="43.42977" lon="6.04846">
        <ele>299.39999389648</ele>
        <time>2017-04-05T12:33:11Z</time>
      </trkpt>
      <trkpt lat="43.4298" lon="6.04843">
        <ele>298.39999389648</ele>
        <time>2017-04-05T12:33:12Z</time>
      </trkpt>
      <trkpt lat="43.42986" lon="6.04835">
        <ele>296</ele>
        <time>2017-04-05T12:33:14Z</time>
      </trkpt>
      <trkpt lat="43.42988" lon="6.0483">
        <ele>294.60000610352</ele>
        <time>2017-04-05T12:33:15Z</time>
      </trkpt>
      <trkpt lat="43.42989" lon="6.04825">
        <ele>293.39999389648</ele>
        <time>2017-04-05T12:33:16Z</time>
      </trkpt>
      <trkpt lat="43.42992" lon="6.04815">
        <ele>292.20001220703</ele>
        <time>2017-04-05T12:33:18Z</time>
      </trkpt>
      <trkpt lat="43.42999" lon="6.04803">
        <ele>291.20001220703</ele>
        <time>2017-04-05T12:33:21Z</time>
      </trkpt>
      <trkpt lat="43.43007" lon="6.04794">
        <ele>290.20001220703</ele>
        <time>2017-04-05T12:33:25Z</time>
      </trkpt>
      <trkpt lat="43.43011" lon="6.0479">
        <ele>290</ele>
        <time>2017-04-05T12:33:27Z</time>
      </trkpt>
      <trkpt lat="43.43023" lon="6.0478">
        <ele>288.79998779297</ele>
        <time>2017-04-05T12:33:31Z</time>
      </trkpt>
      <trkpt lat="43.43027" lon="6.04775">
        <ele>287.60000610352</ele>
        <time>2017-04-05T12:33:32Z</time>
      </trkpt>
      <trkpt lat="43.4303" lon="6.0477">
        <ele>286</ele>
        <time>2017-04-05T12:33:33Z</time>
      </trkpt>
      <trkpt lat="43.43031" lon="6.04765">
        <ele>284.79998779297</ele>
        <time>2017-04-05T12:33:34Z</time>
      </trkpt>
      <trkpt lat="43.43036" lon="6.04752">
        <ele>284.39999389648</ele>
        <time>2017-04-05T12:33:37Z</time>
      </trkpt>
      <trkpt lat="43.43041" lon="6.04744">
        <ele>284.60000610352</ele>
        <time>2017-04-05T12:33:39Z</time>
      </trkpt>
      <trkpt lat="43.43047" lon="6.04732">
        <ele>285</ele>
        <time>2017-04-05T12:33:42Z</time>
      </trkpt>
      <trkpt lat="43.43051" lon="6.04724">
        <ele>285.39999389648</ele>
        <time>2017-04-05T12:33:44Z</time>
      </trkpt>
      <trkpt lat="43.43055" lon="6.04714">
        <ele>286</ele>
        <time>2017-04-05T12:33:46Z</time>
      </trkpt>
      <trkpt lat="43.43056" lon="6.04705">
        <ele>286.79998779297</ele>
        <time>2017-04-05T12:33:48Z</time>
      </trkpt>
      <trkpt lat="43.43056" lon="6.047">
        <ele>287</ele>
        <time>2017-04-05T12:33:49Z</time>
      </trkpt>
      <trkpt lat="43.43054" lon="6.04686">
        <ele>287.60000610352</ele>
        <time>2017-04-05T12:33:52Z</time>
      </trkpt>
      <trkpt lat="43.43053" lon="6.0467">
        <ele>288</ele>
        <time>2017-04-05T12:33:55Z</time>
      </trkpt>
      <trkpt lat="43.43053" lon="6.04665">
        <ele>288.39999389648</ele>
        <time>2017-04-05T12:33:56Z</time>
      </trkpt>
      <trkpt lat="43.43052" lon="6.04654">
        <ele>288.79998779297</ele>
        <time>2017-04-05T12:33:58Z</time>
      </trkpt>
      <trkpt lat="43.43043" lon="6.04611">
        <ele>289.20001220703</ele>
        <time>2017-04-05T12:34:08Z</time>
      </trkpt>
      <trkpt lat="43.43042" lon="6.04607">
        <ele>289.60000610352</ele>
        <time>2017-04-05T12:34:09Z</time>
      </trkpt>
      <trkpt lat="43.43044" lon="6.04579">
        <ele>290.79998779297</ele>
        <time>2017-04-05T12:34:16Z</time>
      </trkpt>
      <trkpt lat="43.43045" lon="6.04571">
        <ele>291</ele>
        <time>2017-04-05T12:34:18Z</time>
      </trkpt>
      <trkpt lat="43.43053" lon="6.04536">
        <ele>292</ele>
        <time>2017-04-05T12:34:27Z</time>
      </trkpt>
      <trkpt lat="43.43053" lon="6.04532">
        <ele>292.20001220703</ele>
        <time>2017-04-05T12:34:28Z</time>
      </trkpt>
      <trkpt lat="43.43056" lon="6.04518">
        <ele>293</ele>
        <time>2017-04-05T12:34:32Z</time>
      </trkpt>
      <trkpt lat="43.4306" lon="6.04496">
        <ele>293.20001220703</ele>
        <time>2017-04-05T12:34:38Z</time>
      </trkpt>
      <trkpt lat="43.43066" lon="6.04468">
        <ele>294</ele>
        <time>2017-04-05T12:34:46Z</time>
      </trkpt>
      <trkpt lat="43.43072" lon="6.04441">
        <ele>295.20001220703</ele>
        <time>2017-04-05T12:34:55Z</time>
      </trkpt>
      <trkpt lat="43.43076" lon="6.04433">
        <ele>295.39999389648</ele>
        <time>2017-04-05T12:34:58Z</time>
      </trkpt>
      <trkpt lat="43.43081" lon="6.04407">
        <ele>296.20001220703</ele>
        <time>2017-04-05T12:35:08Z</time>
      </trkpt>
      <trkpt lat="43.43093" lon="6.04385">
        <ele>297.20001220703</ele>
        <time>2017-04-05T12:35:17Z</time>
      </trkpt>
      <trkpt lat="43.43095" lon="6.04383">
        <ele>297.39999389648</ele>
        <time>2017-04-05T12:35:18Z</time>
      </trkpt>
      <trkpt lat="43.43099" lon="6.0437">
        <ele>298.20001220703</ele>
        <time>2017-04-05T12:35:23Z</time>
      </trkpt>
      <trkpt lat="43.431" lon="6.04355">
        <ele>299</ele>
        <time>2017-04-05T12:35:28Z</time>
      </trkpt>
      <trkpt lat="43.43102" lon="6.04337">
        <ele>299.39999389648</ele>
        <time>2017-04-05T12:35:34Z</time>
      </trkpt>
      <trkpt lat="43.43102" lon="6.04325">
        <ele>299.79998779297</ele>
        <time>2017-04-05T12:35:38Z</time>
      </trkpt>
      <trkpt lat="43.43102" lon="6.04315">
        <ele>300.39999389648</ele>
        <time>2017-04-05T12:35:42Z</time>
      </trkpt>
      <trkpt lat="43.43098" lon="6.043">
        <ele>301.20001220703</ele>
        <time>2017-04-05T12:35:48Z</time>
      </trkpt>
      <trkpt lat="43.43094" lon="6.04271">
        <ele>301.60000610352</ele>
        <time>2017-04-05T12:35:58Z</time>
      </trkpt>
      <trkpt lat="43.43089" lon="6.04248">
        <ele>302</ele>
        <time>2017-04-05T12:36:05Z</time>
      </trkpt>
      <trkpt lat="43.43081" lon="6.04228">
        <ele>302.60000610352</ele>
        <time>2017-04-05T12:36:12Z</time>
      </trkpt>
      <trkpt lat="43.43074" lon="6.04211">
        <ele>303</ele>
        <time>2017-04-05T12:36:18Z</time>
      </trkpt>
      <trkpt lat="43.43077" lon="6.04178">
        <ele>303.60000610352</ele>
        <time>2017-04-05T12:36:28Z</time>
      </trkpt>
      <trkpt lat="43.43074" lon="6.04148">
        <ele>304.39999389648</ele>
        <time>2017-04-05T12:36:37Z</time>
      </trkpt>
      <trkpt lat="43.43074" lon="6.04145">
        <ele>304.39999389648</ele>
        <time>2017-04-05T12:36:38Z</time>
      </trkpt>
      <trkpt lat="43.43083" lon="6.04111">
        <ele>305</ele>
        <time>2017-04-05T12:36:48Z</time>
      </trkpt>
      <trkpt lat="43.43081" lon="6.04076">
        <ele>305.20001220703</ele>
        <time>2017-04-05T12:36:58Z</time>
      </trkpt>
      <trkpt lat="43.4308" lon="6.04065">
        <ele>305.60000610352</ele>
        <time>2017-04-05T12:37:02Z</time>
      </trkpt>
      <trkpt lat="43.4308" lon="6.04064">
        <ele>305.79998779297</ele>
        <time>2017-04-05T12:37:03Z</time>
      </trkpt>
      <trkpt lat="43.43081" lon="6.0406">
        <ele>306.20001220703</ele>
        <time>2017-04-05T12:37:05Z</time>
      </trkpt>
      <trkpt lat="43.4308" lon="6.04054">
        <ele>306.20001220703</ele>
        <time>2017-04-05T12:37:08Z</time>
      </trkpt>
      <trkpt lat="43.43079" lon="6.04044">
        <ele>306.79998779297</ele>
        <time>2017-04-05T12:37:14Z</time>
      </trkpt>
      <trkpt lat="43.43079" lon="6.04039">
        <ele>306.79998779297</ele>
        <time>2017-04-05T12:37:17Z</time>
      </trkpt>
      <trkpt lat="43.43079" lon="6.04039">
        <ele>307</ele>
        <time>2017-04-05T12:37:19Z</time>
      </trkpt>
      <trkpt lat="43.43079" lon="6.04039">
        <ele>307</ele>
        <time>2017-04-05T12:37:24Z</time>
      </trkpt>
      <trkpt lat="43.43079" lon="6.04039">
        <ele>307.20001220703</ele>
        <time>2017-04-05T12:37:29Z</time>
      </trkpt>
      <trkpt lat="43.43079" lon="6.04038">
        <ele>307.20001220703</ele>
        <time>2017-04-05T12:37:42Z</time>
      </trkpt>
      <trkpt lat="43.43079" lon="6.04038">
        <ele>306.79998779297</ele>
        <time>2017-04-05T12:37:47Z</time>
      </trkpt>
      <trkpt lat="43.43079" lon="6.04038">
        <ele>306.79998779297</ele>
        <time>2017-04-05T12:37:49Z</time>
      </trkpt>
      <trkpt lat="43.43079" lon="6.04038">
        <ele>307</ele>
        <time>2017-04-05T12:37:59Z</time>
      </trkpt>
      <trkpt lat="43.4308" lon="6.04037">
        <ele>307</ele>
        <time>2017-04-05T12:38:10Z</time>
      </trkpt>
      <trkpt lat="43.4308" lon="6.04037">
        <ele>307</ele>
        <time>2017-04-05T12:38:19Z</time>
      </trkpt>
      <trkpt lat="43.4308" lon="6.04036">
        <ele>307</ele>
        <time>2017-04-05T12:38:29Z</time>
      </trkpt>
      <trkpt lat="43.4308" lon="6.04035">
        <ele>307</ele>
        <time>2017-04-05T12:38:39Z</time>
      </trkpt>
      <trkpt lat="43.4308" lon="6.04035">
        <ele>307</ele>
        <time>2017-04-05T12:38:43Z</time>
      </trkpt>
      <trkpt lat="43.4308" lon="6.04033">
        <ele>307</ele>
        <time>2017-04-05T12:38:49Z</time>
      </trkpt>
      <trkpt lat="43.4308" lon="6.04031">
        <ele>307</ele>
        <time>2017-04-05T12:38:50Z</time>
      </trkpt>
      <trkpt lat="43.4308" lon="6.04029">
        <ele>307</ele>
        <time>2017-04-05T12:38:51Z</time>
      </trkpt>
      <trkpt lat="43.43079" lon="6.04025">
        <ele>307.79998779297</ele>
        <time>2017-04-05T12:38:53Z</time>
      </trkpt>
      <trkpt lat="43.43069" lon="6.04021">
        <ele>308.20001220703</ele>
        <time>2017-04-05T12:38:58Z</time>
      </trkpt>
      <trkpt lat="43.43064" lon="6.0403">
        <ele>308.20001220703</ele>
        <time>2017-04-05T12:39:01Z</time>
      </trkpt>
      <trkpt lat="43.43055" lon="6.04065">
        <ele>307.79998779297</ele>
        <time>2017-04-05T12:39:10Z</time>
      </trkpt>
      <trkpt lat="43.4305" lon="6.04087">
        <ele>307.39999389648</ele>
        <time>2017-04-05T12:39:15Z</time>
      </trkpt>
      <trkpt lat="43.43045" lon="6.04112">
        <ele>307.20001220703</ele>
        <time>2017-04-05T12:39:20Z</time>
      </trkpt>
      <trkpt lat="43.43036" lon="6.04154">
        <ele>306.79998779297</ele>
        <time>2017-04-05T12:39:27Z</time>
      </trkpt>
      <trkpt lat="43.43035" lon="6.0416">
        <ele>306.60000610352</ele>
        <time>2017-04-05T12:39:28Z</time>
      </trkpt>
      <trkpt lat="43.43034" lon="6.04172">
        <ele>306.60000610352</ele>
        <time>2017-04-05T12:39:30Z</time>
      </trkpt>
      <trkpt lat="43.43029" lon="6.04195">
        <ele>306.79998779297</ele>
        <time>2017-04-05T12:39:34Z</time>
      </trkpt>
      <trkpt lat="43.43021" lon="6.04228">
        <ele>307</ele>
        <time>2017-04-05T12:39:40Z</time>
      </trkpt>
      <trkpt lat="43.43018" lon="6.04244">
        <ele>307.79998779297</ele>
        <time>2017-04-05T12:39:43Z</time>
      </trkpt>
      <trkpt lat="43.4301" lon="6.04287">
        <ele>308</ele>
        <time>2017-04-05T12:39:50Z</time>
      </trkpt>
      <trkpt lat="43.43007" lon="6.04313">
        <ele>307.39999389648</ele>
        <time>2017-04-05T12:39:54Z</time>
      </trkpt>
      <trkpt lat="43.43006" lon="6.04326">
        <ele>306.60000610352</ele>
        <time>2017-04-05T12:39:56Z</time>
      </trkpt>
      <trkpt lat="43.43003" lon="6.04351">
        <ele>306</ele>
        <time>2017-04-05T12:40:00Z</time>
      </trkpt>
      <trkpt lat="43.43002" lon="6.04369">
        <ele>306.60000610352</ele>
        <time>2017-04-05T12:40:03Z</time>
      </trkpt>
      <trkpt lat="43.43" lon="6.04385">
        <ele>306.79998779297</ele>
        <time>2017-04-05T12:40:06Z</time>
      </trkpt>
      <trkpt lat="43.42996" lon="6.04404">
        <ele>306.60000610352</ele>
        <time>2017-04-05T12:40:10Z</time>
      </trkpt>
      <trkpt lat="43.42994" lon="6.04417">
        <ele>308</ele>
        <time>2017-04-05T12:40:13Z</time>
      </trkpt>
      <trkpt lat="43.42989" lon="6.04443">
        <ele>308.79998779297</ele>
        <time>2017-04-05T12:40:20Z</time>
      </trkpt>
      <trkpt lat="43.42986" lon="6.04458">
        <ele>308.60000610352</ele>
        <time>2017-04-05T12:40:24Z</time>
      </trkpt>
      <trkpt lat="43.4298" lon="6.04482">
        <ele>308.39999389648</ele>
        <time>2017-04-05T12:40:29Z</time>
      </trkpt>
      <trkpt lat="43.42978" lon="6.04489">
        <ele>308</ele>
        <time>2017-04-05T12:40:30Z</time>
      </trkpt>
      <trkpt lat="43.42976" lon="6.04506">
        <ele>306.79998779297</ele>
        <time>2017-04-05T12:40:32Z</time>
      </trkpt>
      <trkpt lat="43.42976" lon="6.04515">
        <ele>306.20001220703</ele>
        <time>2017-04-05T12:40:33Z</time>
      </trkpt>
      <trkpt lat="43.42976" lon="6.04524">
        <ele>305.20001220703</ele>
        <time>2017-04-05T12:40:34Z</time>
      </trkpt>
      <trkpt lat="43.42977" lon="6.04534">
        <ele>304.20001220703</ele>
        <time>2017-04-05T12:40:35Z</time>
      </trkpt>
      <trkpt lat="43.42977" lon="6.04545">
        <ele>302.60000610352</ele>
        <time>2017-04-05T12:40:36Z</time>
      </trkpt>
      <trkpt lat="43.42978" lon="6.04555">
        <ele>301</ele>
        <time>2017-04-05T12:40:37Z</time>
      </trkpt>
      <trkpt lat="43.42978" lon="6.04573">
        <ele>299.79998779297</ele>
        <time>2017-04-05T12:40:39Z</time>
      </trkpt>
      <trkpt lat="43.42977" lon="6.04584">
        <ele>299.39999389648</ele>
        <time>2017-04-05T12:40:41Z</time>
      </trkpt>
      <trkpt lat="43.42974" lon="6.04604">
        <ele>299.79998779297</ele>
        <time>2017-04-05T12:40:46Z</time>
      </trkpt>
      <trkpt lat="43.42971" lon="6.04617">
        <ele>300.79998779297</ele>
        <time>2017-04-05T12:40:50Z</time>
      </trkpt>
      <trkpt lat="43.42971" lon="6.04621">
        <ele>301</ele>
        <time>2017-04-05T12:40:51Z</time>
      </trkpt>
      <trkpt lat="43.42966" lon="6.04664">
        <ele>301.39999389648</ele>
        <time>2017-04-05T12:41:01Z</time>
      </trkpt>
      <trkpt lat="43.42964" lon="6.04686">
        <ele>301.20001220703</ele>
        <time>2017-04-05T12:41:06Z</time>
      </trkpt>
      <trkpt lat="43.42961" lon="6.04706">
        <ele>301.79998779297</ele>
        <time>2017-04-05T12:41:11Z</time>
      </trkpt>
      <trkpt lat="43.42956" lon="6.04749">
        <ele>301.79998779297</ele>
        <time>2017-04-05T12:41:21Z</time>
      </trkpt>
      <trkpt lat="43.42953" lon="6.04782">
        <ele>300.60000610352</ele>
        <time>2017-04-05T12:41:28Z</time>
      </trkpt>
      <trkpt lat="43.42952" lon="6.048">
        <ele>299.79998779297</ele>
        <time>2017-04-05T12:41:31Z</time>
      </trkpt>
      <trkpt lat="43.4295" lon="6.04813">
        <ele>298.79998779297</ele>
        <time>2017-04-05T12:41:33Z</time>
      </trkpt>
      <trkpt lat="43.42945" lon="6.04844">
        <ele>298.60000610352</ele>
        <time>2017-04-05T12:41:38Z</time>
      </trkpt>
      <trkpt lat="43.42939" lon="6.04863">
        <ele>300.20001220703</ele>
        <time>2017-04-05T12:41:42Z</time>
      </trkpt>
      <trkpt lat="43.42937" lon="6.04872">
        <ele>300.79998779297</ele>
        <time>2017-04-05T12:41:44Z</time>
      </trkpt>
      <trkpt lat="43.42935" lon="6.0488">
        <ele>301</ele>
        <time>2017-04-05T12:41:46Z</time>
      </trkpt>
      <trkpt lat="43.42935" lon="6.04883">
        <ele>301.20001220703</ele>
        <time>2017-04-05T12:41:47Z</time>
      </trkpt>
      <trkpt lat="43.42934" lon="6.04892">
        <ele>302.39999389648</ele>
        <time>2017-04-05T12:41:50Z</time>
      </trkpt>
      <trkpt lat="43.42934" lon="6.04897">
        <ele>303</ele>
        <time>2017-04-05T12:41:52Z</time>
      </trkpt>
      <trkpt lat="43.42934" lon="6.04902">
        <ele>303.79998779297</ele>
        <time>2017-04-05T12:41:54Z</time>
      </trkpt>
      <trkpt lat="43.42933" lon="6.04909">
        <ele>304.39999389648</ele>
        <time>2017-04-05T12:41:57Z</time>
      </trkpt>
      <trkpt lat="43.42933" lon="6.04915">
        <ele>305</ele>
        <time>2017-04-05T12:42:00Z</time>
      </trkpt>
      <trkpt lat="43.42933" lon="6.04919">
        <ele>305.20001220703</ele>
        <time>2017-04-05T12:42:02Z</time>
      </trkpt>
      <trkpt lat="43.42933" lon="6.04926">
        <ele>305.39999389648</ele>
        <time>2017-04-05T12:42:06Z</time>
      </trkpt>
      <trkpt lat="43.42933" lon="6.04935">
        <ele>305.60000610352</ele>
        <time>2017-04-05T12:42:10Z</time>
      </trkpt>
      <trkpt lat="43.42933" lon="6.04939">
        <ele>305.60000610352</ele>
        <time>2017-04-05T12:42:12Z</time>
      </trkpt>
      <trkpt lat="43.42932" lon="6.04947">
        <ele>306</ele>
        <time>2017-04-05T12:42:16Z</time>
      </trkpt>
      <trkpt lat="43.42932" lon="6.04955">
        <ele>306.60000610352</ele>
        <time>2017-04-05T12:42:22Z</time>
      </trkpt>
      <trkpt lat="43.42932" lon="6.04956">
        <ele>306.60000610352</ele>
        <time>2017-04-05T12:42:26Z</time>
      </trkpt>
      <trkpt lat="43.42932" lon="6.04956">
        <ele>306.39999389648</ele>
        <time>2017-04-05T12:42:32Z</time>
      </trkpt>
      <trkpt lat="43.42932" lon="6.04956">
        <ele>306.60000610352</ele>
        <time>2017-04-05T12:42:52Z</time>
      </trkpt>
      <trkpt lat="43.42932" lon="6.04956">
        <ele>307</ele>
        <time>2017-04-05T12:42:56Z</time>
      </trkpt>
      <trkpt lat="43.42932" lon="6.04956">
        <ele>307.39999389648</ele>
        <time>2017-04-05T12:43:22Z</time>
      </trkpt>
      <trkpt lat="43.42932" lon="6.04956">
        <ele>306.60000610352</ele>
        <time>2017-04-05T12:43:42Z</time>
      </trkpt>
      <trkpt lat="43.42931" lon="6.04957">
        <ele>306.60000610352</ele>
        <time>2017-04-05T12:43:49Z</time>
      </trkpt>
      <trkpt lat="43.42931" lon="6.04963">
        <ele>307</ele>
        <time>2017-04-05T12:43:52Z</time>
      </trkpt>
      <trkpt lat="43.42929" lon="6.0497">
        <ele>306.39999389648</ele>
        <time>2017-04-05T12:43:54Z</time>
      </trkpt>
      <trkpt lat="43.42927" lon="6.0499">
        <ele>306.60000610352</ele>
        <time>2017-04-05T12:43:59Z</time>
      </trkpt>
      <trkpt lat="43.42925" lon="6.05003">
        <ele>306.79998779297</ele>
        <time>2017-04-05T12:44:02Z</time>
      </trkpt>
      <trkpt lat="43.42923" lon="6.05017">
        <ele>307.39999389648</ele>
        <time>2017-04-05T12:44:05Z</time>
      </trkpt>
      <trkpt lat="43.42923" lon="6.05033">
        <ele>308</ele>
        <time>2017-04-05T12:44:08Z</time>
      </trkpt>
      <trkpt lat="43.42922" lon="6.05044">
        <ele>308.39999389648</ele>
        <time>2017-04-05T12:44:10Z</time>
      </trkpt>
      <trkpt lat="43.4292" lon="6.05058">
        <ele>308.60000610352</ele>
        <time>2017-04-05T12:44:12Z</time>
      </trkpt>
      <trkpt lat="43.42918" lon="6.05071">
        <ele>308.79998779297</ele>
        <time>2017-04-05T12:44:14Z</time>
      </trkpt>
      <trkpt lat="43.42917" lon="6.05078">
        <ele>309</ele>
        <time>2017-04-05T12:44:15Z</time>
      </trkpt>
      <trkpt lat="43.42916" lon="6.05092">
        <ele>309</ele>
        <time>2017-04-05T12:44:17Z</time>
      </trkpt>
      <trkpt lat="43.42915" lon="6.05105">
        <ele>309.20001220703</ele>
        <time>2017-04-05T12:44:19Z</time>
      </trkpt>
      <trkpt lat="43.42913" lon="6.05119">
        <ele>309.39999389648</ele>
        <time>2017-04-05T12:44:21Z</time>
      </trkpt>
      <trkpt lat="43.42911" lon="6.05135">
        <ele>309.79998779297</ele>
        <time>2017-04-05T12:44:24Z</time>
      </trkpt>
      <trkpt lat="43.4291" lon="6.05146">
        <ele>310.60000610352</ele>
        <time>2017-04-05T12:44:26Z</time>
      </trkpt>
      <trkpt lat="43.42907" lon="6.05169">
        <ele>311</ele>
        <time>2017-04-05T12:44:31Z</time>
      </trkpt>
      <trkpt lat="43.42904" lon="6.05189">
        <ele>311.60000610352</ele>
        <time>2017-04-05T12:44:36Z</time>
      </trkpt>
      <trkpt lat="43.42902" lon="6.05209">
        <ele>311.79998779297</ele>
        <time>2017-04-05T12:44:42Z</time>
      </trkpt>
      <trkpt lat="43.429" lon="6.05217">
        <ele>312.20001220703</ele>
        <time>2017-04-05T12:44:45Z</time>
      </trkpt>
      <trkpt lat="43.429" lon="6.05226">
        <ele>312.20001220703</ele>
        <time>2017-04-05T12:44:48Z</time>
      </trkpt>
      <trkpt lat="43.42898" lon="6.05238">
        <ele>312.20001220703</ele>
        <time>2017-04-05T12:44:52Z</time>
      </trkpt>
      <trkpt lat="43.42896" lon="6.05256">
        <ele>312.20001220703</ele>
        <time>2017-04-05T12:44:58Z</time>
      </trkpt>
      <trkpt lat="43.42894" lon="6.05268">
        <ele>312.60000610352</ele>
        <time>2017-04-05T12:45:02Z</time>
      </trkpt>
      <trkpt lat="43.42892" lon="6.05285">
        <ele>312.60000610352</ele>
        <time>2017-04-05T12:45:07Z</time>
      </trkpt>
      <trkpt lat="43.42891" lon="6.05304">
        <ele>312.60000610352</ele>
        <time>2017-04-05T12:45:12Z</time>
      </trkpt>
      <trkpt lat="43.42888" lon="6.05326">
        <ele>312.60000610352</ele>
        <time>2017-04-05T12:45:17Z</time>
      </trkpt>
      <trkpt lat="43.42886" lon="6.0534">
        <ele>312.20001220703</ele>
        <time>2017-04-05T12:45:20Z</time>
      </trkpt>
      <trkpt lat="43.42884" lon="6.05351">
        <ele>311.39999389648</ele>
        <time>2017-04-05T12:45:22Z</time>
      </trkpt>
      <trkpt lat="43.4288" lon="6.05373">
        <ele>310.60000610352</ele>
        <time>2017-04-05T12:45:26Z</time>
      </trkpt>
      <trkpt lat="43.42879" lon="6.05378">
        <ele>310.39999389648</ele>
        <time>2017-04-05T12:45:27Z</time>
      </trkpt>
      <trkpt lat="43.42878" lon="6.05391">
        <ele>310</ele>
        <time>2017-04-05T12:45:29Z</time>
      </trkpt>
      <trkpt lat="43.42878" lon="6.05398">
        <ele>310</ele>
        <time>2017-04-05T12:45:30Z</time>
      </trkpt>
      <trkpt lat="43.42879" lon="6.05412">
        <ele>310</ele>
        <time>2017-04-05T12:45:32Z</time>
      </trkpt>
      <trkpt lat="43.42876" lon="6.05432">
        <ele>309.39999389648</ele>
        <time>2017-04-05T12:45:35Z</time>
      </trkpt>
      <trkpt lat="43.42873" lon="6.05452">
        <ele>308.60000610352</ele>
        <time>2017-04-05T12:45:38Z</time>
      </trkpt>
      <trkpt lat="43.42872" lon="6.05458">
        <ele>308.20001220703</ele>
        <time>2017-04-05T12:45:39Z</time>
      </trkpt>
      <trkpt lat="43.4287" lon="6.05476">
        <ele>307.60000610352</ele>
        <time>2017-04-05T12:45:42Z</time>
      </trkpt>
      <trkpt lat="43.42863" lon="6.05508">
        <ele>308</ele>
        <time>2017-04-05T12:45:49Z</time>
      </trkpt>
      <trkpt lat="43.42859" lon="6.05515">
        <ele>308.20001220703</ele>
        <time>2017-04-05T12:45:51Z</time>
      </trkpt>
      <trkpt lat="43.42858" lon="6.05519">
        <ele>308.20001220703</ele>
        <time>2017-04-05T12:45:52Z</time>
      </trkpt>
      <trkpt lat="43.42855" lon="6.05537">
        <ele>308.20001220703</ele>
        <time>2017-04-05T12:45:55Z</time>
      </trkpt>
      <trkpt lat="43.42852" lon="6.05565">
        <ele>307.20001220703</ele>
        <time>2017-04-05T12:45:59Z</time>
      </trkpt>
      <trkpt lat="43.42849" lon="6.05586">
        <ele>306.60000610352</ele>
        <time>2017-04-05T12:46:02Z</time>
      </trkpt>
      <trkpt lat="43.42847" lon="6.05605">
        <ele>307.39999389648</ele>
        <time>2017-04-05T12:46:05Z</time>
      </trkpt>
      <trkpt lat="43.42844" lon="6.05625">
        <ele>308.39999389648</ele>
        <time>2017-04-05T12:46:08Z</time>
      </trkpt>
      <trkpt lat="43.42842" lon="6.05639">
        <ele>308.60000610352</ele>
        <time>2017-04-05T12:46:10Z</time>
      </trkpt>
      <trkpt lat="43.42841" lon="6.05652">
        <ele>308.60000610352</ele>
        <time>2017-04-05T12:46:12Z</time>
      </trkpt>
      <trkpt lat="43.4284" lon="6.05665">
        <ele>308.60000610352</ele>
        <time>2017-04-05T12:46:14Z</time>
      </trkpt>
      <trkpt lat="43.42838" lon="6.05685">
        <ele>308.60000610352</ele>
        <time>2017-04-05T12:46:17Z</time>
      </trkpt>
      <trkpt lat="43.42835" lon="6.0571">
        <ele>309.20001220703</ele>
        <time>2017-04-05T12:46:22Z</time>
      </trkpt>
      <trkpt lat="43.42833" lon="6.05722">
        <ele>309</ele>
        <time>2017-04-05T12:46:25Z</time>
      </trkpt>
      <trkpt lat="43.42831" lon="6.05732">
        <ele>308.60000610352</ele>
        <time>2017-04-05T12:46:28Z</time>
      </trkpt>
      <trkpt lat="43.42829" lon="6.05735">
        <ele>308.20001220703</ele>
        <time>2017-04-05T12:46:32Z</time>
      </trkpt>
      <trkpt lat="43.42829" lon="6.05735">
        <ele>308.39999389648</ele>
        <time>2017-04-05T12:46:38Z</time>
      </trkpt>
      <trkpt lat="43.42829" lon="6.05735">
        <ele>308.39999389648</ele>
        <time>2017-04-05T12:46:42Z</time>
      </trkpt>
      <trkpt lat="43.42828" lon="6.05736">
        <ele>308.60000610352</ele>
        <time>2017-04-05T12:46:50Z</time>
      </trkpt>
      <trkpt lat="43.42826" lon="6.05737">
        <ele>308.39999389648</ele>
        <time>2017-04-05T12:46:52Z</time>
      </trkpt>
      <trkpt lat="43.42813" lon="6.05742">
        <ele>308.20001220703</ele>
        <time>2017-04-05T12:46:58Z</time>
      </trkpt>
      <trkpt lat="43.42804" lon="6.05747">
        <ele>308.60000610352</ele>
        <time>2017-04-05T12:47:02Z</time>
      </trkpt>
      <trkpt lat="43.42797" lon="6.05747">
        <ele>308.79998779297</ele>
        <time>2017-04-05T12:47:05Z</time>
      </trkpt>
      <trkpt lat="43.42794" lon="6.05743">
        <ele>308.79998779297</ele>
        <time>2017-04-05T12:47:07Z</time>
      </trkpt>
      <trkpt lat="43.42776" lon="6.05735">
        <ele>308</ele>
        <time>2017-04-05T12:47:14Z</time>
      </trkpt>
      <trkpt lat="43.4276" lon="6.0574">
        <ele>307.20001220703</ele>
        <time>2017-04-05T12:47:18Z</time>
      </trkpt>
      <trkpt lat="43.42747" lon="6.05745">
        <ele>306.79998779297</ele>
        <time>2017-04-05T12:47:22Z</time>
      </trkpt>
      <trkpt lat="43.42724" lon="6.05741">
        <ele>306.60000610352</ele>
        <time>2017-04-05T12:47:28Z</time>
      </trkpt>
      <trkpt lat="43.42708" lon="6.0574">
        <ele>306.20001220703</ele>
        <time>2017-04-05T12:47:32Z</time>
      </trkpt>
      <trkpt lat="43.42705" lon="6.0574">
        <ele>306.20001220703</ele>
        <time>2017-04-05T12:47:33Z</time>
      </trkpt>
      <trkpt lat="43.42702" lon="6.0574">
        <ele>306.39999389648</ele>
        <time>2017-04-05T12:47:49Z</time>
      </trkpt>
      <trkpt lat="43.42702" lon="6.0574">
        <ele>306.39999389648</ele>
        <time>2017-04-05T12:47:52Z</time>
      </trkpt>
      <trkpt lat="43.42702" lon="6.0574">
        <ele>305.79998779297</ele>
        <time>2017-04-05T12:48:03Z</time>
      </trkpt>
      <trkpt lat="43.42702" lon="6.0574">
        <ele>306</ele>
        <time>2017-04-05T12:48:13Z</time>
      </trkpt>
      <trkpt lat="43.42701" lon="6.05739">
        <ele>306</ele>
        <time>2017-04-05T12:48:22Z</time>
      </trkpt>
      <trkpt lat="43.427" lon="6.05738">
        <ele>306</ele>
        <time>2017-04-05T12:48:23Z</time>
      </trkpt>
      <trkpt lat="43.42699" lon="6.05736">
        <ele>306</ele>
        <time>2017-04-05T12:48:24Z</time>
      </trkpt>
      <trkpt lat="43.42698" lon="6.05728">
        <ele>305.60000610352</ele>
        <time>2017-04-05T12:48:27Z</time>
      </trkpt>
      <trkpt lat="43.42701" lon="6.05715">
        <ele>305.20001220703</ele>
        <time>2017-04-05T12:48:30Z</time>
      </trkpt>
      <trkpt lat="43.42704" lon="6.05702">
        <ele>304.39999389648</ele>
        <time>2017-04-05T12:48:33Z</time>
      </trkpt>
      <trkpt lat="43.42706" lon="6.05697">
        <ele>303.79998779297</ele>
        <time>2017-04-05T12:48:34Z</time>
      </trkpt>
      <trkpt lat="43.42711" lon="6.05684">
        <ele>303.39999389648</ele>
        <time>2017-04-05T12:48:37Z</time>
      </trkpt>
      <trkpt lat="43.42722" lon="6.05672">
        <ele>301.20001220703</ele>
        <time>2017-04-05T12:48:40Z</time>
      </trkpt>
      <trkpt lat="43.42724" lon="6.05667">
        <ele>300.39999389648</ele>
        <time>2017-04-05T12:48:41Z</time>
      </trkpt>
      <trkpt lat="43.42731" lon="6.05651">
        <ele>297.60000610352</ele>
        <time>2017-04-05T12:48:44Z</time>
      </trkpt>
      <trkpt lat="43.42735" lon="6.05647">
        <ele>297.20001220703</ele>
        <time>2017-04-05T12:48:45Z</time>
      </trkpt>
      <trkpt lat="43.42741" lon="6.0564">
        <ele>296.39999389648</ele>
        <time>2017-04-05T12:48:47Z</time>
      </trkpt>
      <trkpt lat="43.42744" lon="6.05635">
        <ele>296.39999389648</ele>
        <time>2017-04-05T12:48:48Z</time>
      </trkpt>
      <trkpt lat="43.42751" lon="6.0562">
        <ele>295.79998779297</ele>
        <time>2017-04-05T12:48:51Z</time>
      </trkpt>
      <trkpt lat="43.42753" lon="6.05608">
        <ele>295.60000610352</ele>
        <time>2017-04-05T12:48:53Z</time>
      </trkpt>
      <trkpt lat="43.42754" lon="6.05601">
        <ele>295.79998779297</ele>
        <time>2017-04-05T12:48:54Z</time>
      </trkpt>
      <trkpt lat="43.42753" lon="6.05594">
        <ele>295.79998779297</ele>
        <time>2017-04-05T12:48:55Z</time>
      </trkpt>
      <trkpt lat="43.42747" lon="6.05581">
        <ele>294.79998779297</ele>
        <time>2017-04-05T12:48:57Z</time>
      </trkpt>
      <trkpt lat="43.42739" lon="6.0557">
        <ele>292.20001220703</ele>
        <time>2017-04-05T12:48:59Z</time>
      </trkpt>
      <trkpt lat="43.42736" lon="6.05563">
        <ele>291</ele>
        <time>2017-04-05T12:49:00Z</time>
      </trkpt>
      <trkpt lat="43.42729" lon="6.05538">
        <ele>290</ele>
        <time>2017-04-05T12:49:03Z</time>
      </trkpt>
      <trkpt lat="43.42728" lon="6.05529">
        <ele>289.79998779297</ele>
        <time>2017-04-05T12:49:04Z</time>
      </trkpt>
      <trkpt lat="43.42727" lon="6.05512">
        <ele>288.79998779297</ele>
        <time>2017-04-05T12:49:06Z</time>
      </trkpt>
      <trkpt lat="43.42724" lon="6.05492">
        <ele>287.79998779297</ele>
        <time>2017-04-05T12:49:09Z</time>
      </trkpt>
      <trkpt lat="43.42723" lon="6.05473">
        <ele>286.39999389648</ele>
        <time>2017-04-05T12:49:12Z</time>
      </trkpt>
      <trkpt lat="43.42727" lon="6.05462">
        <ele>286.39999389648</ele>
        <time>2017-04-05T12:49:14Z</time>
      </trkpt>
      <trkpt lat="43.42729" lon="6.05457">
        <ele>286</ele>
        <time>2017-04-05T12:49:15Z</time>
      </trkpt>
      <trkpt lat="43.4273" lon="6.05446">
        <ele>285.39999389648</ele>
        <time>2017-04-05T12:49:17Z</time>
      </trkpt>
      <trkpt lat="43.42727" lon="6.05425">
        <ele>284.20001220703</ele>
        <time>2017-04-05T12:49:21Z</time>
      </trkpt>
      <trkpt lat="43.42722" lon="6.05411">
        <ele>283.60000610352</ele>
        <time>2017-04-05T12:49:24Z</time>
      </trkpt>
      <trkpt lat="43.42718" lon="6.05396">
        <ele>283.20001220703</ele>
        <time>2017-04-05T12:49:27Z</time>
      </trkpt>
      <trkpt lat="43.42717" lon="6.0539">
        <ele>283</ele>
        <time>2017-04-05T12:49:28Z</time>
      </trkpt>
      <trkpt lat="43.42718" lon="6.05378">
        <ele>282.60000610352</ele>
        <time>2017-04-05T12:49:30Z</time>
      </trkpt>
      <trkpt lat="43.4272" lon="6.05357">
        <ele>281.60000610352</ele>
        <time>2017-04-05T12:49:33Z</time>
      </trkpt>
      <trkpt lat="43.42719" lon="6.05351">
        <ele>280.60000610352</ele>
        <time>2017-04-05T12:49:34Z</time>
      </trkpt>
      <trkpt lat="43.42717" lon="6.05347">
        <ele>279.60000610352</ele>
        <time>2017-04-05T12:49:35Z</time>
      </trkpt>
      <trkpt lat="43.4271" lon="6.05345">
        <ele>278.60000610352</ele>
        <time>2017-04-05T12:49:37Z</time>
      </trkpt>
      <trkpt lat="43.42705" lon="6.05345">
        <ele>278.39999389648</ele>
        <time>2017-04-05T12:49:38Z</time>
      </trkpt>
      <trkpt lat="43.42701" lon="6.05346">
        <ele>278.20001220703</ele>
        <time>2017-04-05T12:49:39Z</time>
      </trkpt>
      <trkpt lat="43.42688" lon="6.05345">
        <ele>277.20001220703</ele>
        <time>2017-04-05T12:49:42Z</time>
      </trkpt>
      <trkpt lat="43.42678" lon="6.05338">
        <ele>276.20001220703</ele>
        <time>2017-04-05T12:49:45Z</time>
      </trkpt>
      <trkpt lat="43.42665" lon="6.05323">
        <ele>275</ele>
        <time>2017-04-05T12:49:49Z</time>
      </trkpt>
      <trkpt lat="43.42657" lon="6.0531">
        <ele>274</ele>
        <time>2017-04-05T12:49:52Z</time>
      </trkpt>
      <trkpt lat="43.42654" lon="6.05305">
        <ele>273.60000610352</ele>
        <time>2017-04-05T12:49:53Z</time>
      </trkpt>
      <trkpt lat="43.42648" lon="6.05295">
        <ele>273.39999389648</ele>
        <time>2017-04-05T12:49:55Z</time>
      </trkpt>
      <trkpt lat="43.4264" lon="6.05287">
        <ele>273</ele>
        <time>2017-04-05T12:49:57Z</time>
      </trkpt>
      <trkpt lat="43.42633" lon="6.05278">
        <ele>272.60000610352</ele>
        <time>2017-04-05T12:49:59Z</time>
      </trkpt>
      <trkpt lat="43.4263" lon="6.05273">
        <ele>271.39999389648</ele>
        <time>2017-04-05T12:50:02Z</time>
      </trkpt>
      <trkpt lat="43.4263" lon="6.05273">
        <ele>271.20001220703</ele>
        <time>2017-04-05T12:50:05Z</time>
      </trkpt>
      <trkpt lat="43.4263" lon="6.05271">
        <ele>271</ele>
        <time>2017-04-05T12:50:15Z</time>
      </trkpt>
      <trkpt lat="43.4263" lon="6.0527">
        <ele>271.60000610352</ele>
        <time>2017-04-05T12:50:26Z</time>
      </trkpt>
      <trkpt lat="43.42629" lon="6.05269">
        <ele>271.60000610352</ele>
        <time>2017-04-05T12:50:28Z</time>
      </trkpt>
      <trkpt lat="43.42625" lon="6.05265">
        <ele>271.39999389648</ele>
        <time>2017-04-05T12:50:31Z</time>
      </trkpt>
      <trkpt lat="43.42616" lon="6.0526">
        <ele>270.60000610352</ele>
        <time>2017-04-05T12:50:35Z</time>
      </trkpt>
      <trkpt lat="43.42612" lon="6.05257">
        <ele>270.39999389648</ele>
        <time>2017-04-05T12:50:36Z</time>
      </trkpt>
      <trkpt lat="43.42602" lon="6.05249">
        <ele>269.39999389648</ele>
        <time>2017-04-05T12:50:39Z</time>
      </trkpt>
      <trkpt lat="43.42595" lon="6.05243">
        <ele>269.20001220703</ele>
        <time>2017-04-05T12:50:41Z</time>
      </trkpt>
      <trkpt lat="43.42581" lon="6.05231">
        <ele>269</ele>
        <time>2017-04-05T12:50:44Z</time>
      </trkpt>
      <trkpt lat="43.42575" lon="6.05229">
        <ele>269</ele>
        <time>2017-04-05T12:50:45Z</time>
      </trkpt>
      <trkpt lat="43.42564" lon="6.05224">
        <ele>269.20001220703</ele>
        <time>2017-04-05T12:50:47Z</time>
      </trkpt>
      <trkpt lat="43.42554" lon="6.05223">
        <ele>269.39999389648</ele>
        <time>2017-04-05T12:50:49Z</time>
      </trkpt>
      <trkpt lat="43.42539" lon="6.05227">
        <ele>269.60000610352</ele>
        <time>2017-04-05T12:50:52Z</time>
      </trkpt>
      <trkpt lat="43.42534" lon="6.05228">
        <ele>269.39999389648</ele>
        <time>2017-04-05T12:50:53Z</time>
      </trkpt>
      <trkpt lat="43.42519" lon="6.05228">
        <ele>267.60000610352</ele>
        <time>2017-04-05T12:50:56Z</time>
      </trkpt>
      <trkpt lat="43.42514" lon="6.05227">
        <ele>267.20001220703</ele>
        <time>2017-04-05T12:50:57Z</time>
      </trkpt>
      <trkpt lat="43.42498" lon="6.05225">
        <ele>266.20001220703</ele>
        <time>2017-04-05T12:51:00Z</time>
      </trkpt>
      <trkpt lat="43.42493" lon="6.05223">
        <ele>265.79998779297</ele>
        <time>2017-04-05T12:51:01Z</time>
      </trkpt>
      <trkpt lat="43.42477" lon="6.05217">
        <ele>265.79998779297</ele>
        <time>2017-04-05T12:51:04Z</time>
      </trkpt>
      <trkpt lat="43.42472" lon="6.05216">
        <ele>265.79998779297</ele>
        <time>2017-04-05T12:51:05Z</time>
      </trkpt>
      <trkpt lat="43.42464" lon="6.05213">
        <ele>266.39999389648</ele>
        <time>2017-04-05T12:51:07Z</time>
      </trkpt>
      <trkpt lat="43.42456" lon="6.05215">
        <ele>266.39999389648</ele>
        <time>2017-04-05T12:51:09Z</time>
      </trkpt>
      <trkpt lat="43.4244" lon="6.0522">
        <ele>265</ele>
        <time>2017-04-05T12:51:12Z</time>
      </trkpt>
      <trkpt lat="43.42435" lon="6.05221">
        <ele>263.79998779297</ele>
        <time>2017-04-05T12:51:13Z</time>
      </trkpt>
      <trkpt lat="43.42425" lon="6.05221">
        <ele>262.39999389648</ele>
        <time>2017-04-05T12:51:15Z</time>
      </trkpt>
      <trkpt lat="43.42411" lon="6.0522">
        <ele>262</ele>
        <time>2017-04-05T12:51:18Z</time>
      </trkpt>
      <trkpt lat="43.42405" lon="6.05212">
        <ele>262.39999389648</ele>
        <time>2017-04-05T12:51:22Z</time>
      </trkpt>
      <trkpt lat="43.42403" lon="6.05205">
        <ele>263.20001220703</ele>
        <time>2017-04-05T12:51:25Z</time>
      </trkpt>
      <trkpt lat="43.42403" lon="6.05204">
        <ele>263.39999389648</ele>
        <time>2017-04-05T12:51:26Z</time>
      </trkpt>
      <trkpt lat="43.42402" lon="6.05202">
        <ele>263.60000610352</ele>
        <time>2017-04-05T12:51:27Z</time>
      </trkpt>
      <trkpt lat="43.42401" lon="6.05199">
        <ele>264.39999389648</ele>
        <time>2017-04-05T12:51:30Z</time>
      </trkpt>
      <trkpt lat="43.42401" lon="6.05198">
        <ele>264.60000610352</ele>
        <time>2017-04-05T12:51:31Z</time>
      </trkpt>
      <trkpt lat="43.42399" lon="6.05198">
        <ele>265.39999389648</ele>
        <time>2017-04-05T12:51:35Z</time>
      </trkpt>
      <trkpt lat="43.42399" lon="6.05195">
        <ele>265.60000610352</ele>
        <time>2017-04-05T12:51:43Z</time>
      </trkpt>
      <trkpt lat="43.42398" lon="6.05191">
        <ele>266.39999389648</ele>
        <time>2017-04-05T12:51:49Z</time>
      </trkpt>
      <trkpt lat="43.42397" lon="6.05189">
        <ele>266.60000610352</ele>
        <time>2017-04-05T12:51:51Z</time>
      </trkpt>
      <trkpt lat="43.42397" lon="6.05189">
        <ele>266.60000610352</ele>
        <time>2017-04-05T12:51:53Z</time>
      </trkpt>
      <trkpt lat="43.42397" lon="6.05188">
        <ele>266.79998779297</ele>
        <time>2017-04-05T12:51:55Z</time>
      </trkpt>
      <trkpt lat="43.42395" lon="6.0518">
        <ele>267</ele>
        <time>2017-04-05T12:52:05Z</time>
      </trkpt>
      <trkpt lat="43.42395" lon="6.0518">
        <ele>267</ele>
        <time>2017-04-05T12:52:09Z</time>
      </trkpt>
      <trkpt lat="43.42395" lon="6.05179">
        <ele>266.79998779297</ele>
        <time>2017-04-05T12:52:14Z</time>
      </trkpt>
      <trkpt lat="43.42395" lon="6.05179">
        <ele>266.79998779297</ele>
        <time>2017-04-05T12:52:15Z</time>
      </trkpt>
      <trkpt lat="43.42394" lon="6.05178">
        <ele>267.20001220703</ele>
        <time>2017-04-05T12:52:22Z</time>
      </trkpt>
      <trkpt lat="43.42388" lon="6.05184">
        <ele>267.39999389648</ele>
        <time>2017-04-05T12:52:25Z</time>
      </trkpt>
      <trkpt lat="43.42386" lon="6.05186">
        <ele>267.20001220703</ele>
        <time>2017-04-05T12:52:26Z</time>
      </trkpt>
      <trkpt lat="43.42375" lon="6.05189">
        <ele>265.39999389648</ele>
        <time>2017-04-05T12:52:30Z</time>
      </trkpt>
      <trkpt lat="43.42369" lon="6.05191">
        <ele>264.20001220703</ele>
        <time>2017-04-05T12:52:32Z</time>
      </trkpt>
      <trkpt lat="43.42362" lon="6.05195">
        <ele>263</ele>
        <time>2017-04-05T12:52:34Z</time>
      </trkpt>
      <trkpt lat="43.42361" lon="6.05198">
        <ele>262.39999389648</ele>
        <time>2017-04-05T12:52:35Z</time>
      </trkpt>
      <trkpt lat="43.42357" lon="6.05201">
        <ele>261.60000610352</ele>
        <time>2017-04-05T12:52:37Z</time>
      </trkpt>
      <trkpt lat="43.42348" lon="6.05202">
        <ele>260.39999389648</ele>
        <time>2017-04-05T12:52:41Z</time>
      </trkpt>
      <trkpt lat="43.42336" lon="6.05204">
        <ele>259</ele>
        <time>2017-04-05T12:52:45Z</time>
      </trkpt>
      <trkpt lat="43.42327" lon="6.05203">
        <ele>257.79998779297</ele>
        <time>2017-04-05T12:52:47Z</time>
      </trkpt>
      <trkpt lat="43.42318" lon="6.05206">
        <ele>257.39999389648</ele>
        <time>2017-04-05T12:52:49Z</time>
      </trkpt>
      <trkpt lat="43.42308" lon="6.05206">
        <ele>256.39999389648</ele>
        <time>2017-04-05T12:52:51Z</time>
      </trkpt>
      <trkpt lat="43.42292" lon="6.05197">
        <ele>256</ele>
        <time>2017-04-05T12:52:55Z</time>
      </trkpt>
      <trkpt lat="43.42289" lon="6.05196">
        <ele>255.80000305176</ele>
        <time>2017-04-05T12:52:56Z</time>
      </trkpt>
      <trkpt lat="43.4227" lon="6.05208">
        <ele>255.39999389648</ele>
        <time>2017-04-05T12:53:01Z</time>
      </trkpt>
      <trkpt lat="43.42265" lon="6.0521">
        <ele>255.19999694824</ele>
        <time>2017-04-05T12:53:02Z</time>
      </trkpt>
      <trkpt lat="43.42256" lon="6.0521">
        <ele>254.60000610352</ele>
        <time>2017-04-05T12:53:04Z</time>
      </trkpt>
      <trkpt lat="43.42252" lon="6.0521">
        <ele>254</ele>
        <time>2017-04-05T12:53:05Z</time>
      </trkpt>
      <trkpt lat="43.42245" lon="6.05209">
        <ele>253.19999694824</ele>
        <time>2017-04-05T12:53:07Z</time>
      </trkpt>
      <trkpt lat="43.42242" lon="6.05207">
        <ele>253</ele>
        <time>2017-04-05T12:53:08Z</time>
      </trkpt>
      <trkpt lat="43.4223" lon="6.05197">
        <ele>252.39999389648</ele>
        <time>2017-04-05T12:53:12Z</time>
      </trkpt>
      <trkpt lat="43.42221" lon="6.05192">
        <ele>251.80000305176</ele>
        <time>2017-04-05T12:53:15Z</time>
      </trkpt>
      <trkpt lat="43.422" lon="6.05179">
        <ele>250.80000305176</ele>
        <time>2017-04-05T12:53:23Z</time>
      </trkpt>
      <trkpt lat="43.42192" lon="6.05176">
        <ele>250.60000610352</ele>
        <time>2017-04-05T12:53:26Z</time>
      </trkpt>
      <trkpt lat="43.42188" lon="6.05176">
        <ele>250.39999389648</ele>
        <time>2017-04-05T12:53:27Z</time>
      </trkpt>
      <trkpt lat="43.42178" lon="6.05176">
        <ele>249.60000610352</ele>
        <time>2017-04-05T12:53:29Z</time>
      </trkpt>
      <trkpt lat="43.42173" lon="6.05173">
        <ele>248.60000610352</ele>
        <time>2017-04-05T12:53:31Z</time>
      </trkpt>
      <trkpt lat="43.42159" lon="6.05163">
        <ele>247.80000305176</ele>
        <time>2017-04-05T12:53:36Z</time>
      </trkpt>
      <trkpt lat="43.42154" lon="6.05158">
        <ele>247.60000610352</ele>
        <time>2017-04-05T12:53:38Z</time>
      </trkpt>
      <trkpt lat="43.42139" lon="6.05141">
        <ele>247.19999694824</ele>
        <time>2017-04-05T12:53:43Z</time>
      </trkpt>
      <trkpt lat="43.42128" lon="6.05129">
        <ele>246.80000305176</ele>
        <time>2017-04-05T12:53:46Z</time>
      </trkpt>
      <trkpt lat="43.42114" lon="6.05121">
        <ele>246.19999694824</ele>
        <time>2017-04-05T12:53:49Z</time>
      </trkpt>
      <trkpt lat="43.42102" lon="6.05121">
        <ele>245.60000610352</ele>
        <time>2017-04-05T12:53:51Z</time>
      </trkpt>
      <trkpt lat="43.42077" lon="6.05118">
        <ele>244.80000305176</ele>
        <time>2017-04-05T12:53:55Z</time>
      </trkpt>
      <trkpt lat="43.42071" lon="6.05118">
        <ele>244.39999389648</ele>
        <time>2017-04-05T12:53:56Z</time>
      </trkpt>
      <trkpt lat="43.42038" lon="6.05123">
        <ele>243</ele>
        <time>2017-04-05T12:54:01Z</time>
      </trkpt>
      <trkpt lat="43.42019" lon="6.05128">
        <ele>242</ele>
        <time>2017-04-05T12:54:04Z</time>
      </trkpt>
      <trkpt lat="43.42007" lon="6.05131">
        <ele>241.39999389648</ele>
        <time>2017-04-05T12:54:06Z</time>
      </trkpt>
      <trkpt lat="43.4199" lon="6.05135">
        <ele>241</ele>
        <time>2017-04-05T12:54:09Z</time>
      </trkpt>
      <trkpt lat="43.41978" lon="6.05136">
        <ele>240.80000305176</ele>
        <time>2017-04-05T12:54:11Z</time>
      </trkpt>
      <trkpt lat="43.41949" lon="6.05147">
        <ele>239.80000305176</ele>
        <time>2017-04-05T12:54:16Z</time>
      </trkpt>
      <trkpt lat="43.41941" lon="6.05153">
        <ele>238.39999389648</ele>
        <time>2017-04-05T12:54:19Z</time>
      </trkpt>
      <trkpt lat="43.41938" lon="6.05159">
        <ele>238</ele>
        <time>2017-04-05T12:54:22Z</time>
      </trkpt>
      <trkpt lat="43.41938" lon="6.05167">
        <ele>238</ele>
        <time>2017-04-05T12:54:25Z</time>
      </trkpt>
      <trkpt lat="43.41938" lon="6.0517">
        <ele>238.19999694824</ele>
        <time>2017-04-05T12:54:26Z</time>
      </trkpt>
      <trkpt lat="43.41938" lon="6.05179">
        <ele>238.39999389648</ele>
        <time>2017-04-05T12:54:29Z</time>
      </trkpt>
      <trkpt lat="43.41938" lon="6.05186">
        <ele>239</ele>
        <time>2017-04-05T12:54:32Z</time>
      </trkpt>
      <trkpt lat="43.41936" lon="6.05188">
        <ele>239.60000610352</ele>
        <time>2017-04-05T12:54:34Z</time>
      </trkpt>
      <trkpt lat="43.41936" lon="6.0519">
        <ele>239.80000305176</ele>
        <time>2017-04-05T12:54:36Z</time>
      </trkpt>
      <trkpt lat="43.41937" lon="6.05194">
        <ele>240</ele>
        <time>2017-04-05T12:54:40Z</time>
      </trkpt>
      <trkpt lat="43.41937" lon="6.05203">
        <ele>240.39999389648</ele>
        <time>2017-04-05T12:54:43Z</time>
      </trkpt>
      <trkpt lat="43.41938" lon="6.0521">
        <ele>240.60000610352</ele>
        <time>2017-04-05T12:54:45Z</time>
      </trkpt>
      <trkpt lat="43.41938" lon="6.05214">
        <ele>240.80000305176</ele>
        <time>2017-04-05T12:54:46Z</time>
      </trkpt>
      <trkpt lat="43.4194" lon="6.05226">
        <ele>241.60000610352</ele>
        <time>2017-04-05T12:54:49Z</time>
      </trkpt>
      <trkpt lat="43.41942" lon="6.05241">
        <ele>242.19999694824</ele>
        <time>2017-04-05T12:54:53Z</time>
      </trkpt>
      <trkpt lat="43.41945" lon="6.05256">
        <ele>242.80000305176</ele>
        <time>2017-04-05T12:54:57Z</time>
      </trkpt>
      <trkpt lat="43.41951" lon="6.05279">
        <ele>243.80000305176</ele>
        <time>2017-04-05T12:55:04Z</time>
      </trkpt>
      <trkpt lat="43.41953" lon="6.05289">
        <ele>244.19999694824</ele>
        <time>2017-04-05T12:55:07Z</time>
      </trkpt>
      <trkpt lat="43.41956" lon="6.05303">
        <ele>245</ele>
        <time>2017-04-05T12:55:11Z</time>
      </trkpt>
      <trkpt lat="43.41961" lon="6.05318">
        <ele>245.80000305176</ele>
        <time>2017-04-05T12:55:15Z</time>
      </trkpt>
      <trkpt lat="43.41963" lon="6.05325">
        <ele>246.19999694824</ele>
        <time>2017-04-05T12:55:17Z</time>
      </trkpt>
      <trkpt lat="43.41966" lon="6.05344">
        <ele>247</ele>
        <time>2017-04-05T12:55:22Z</time>
      </trkpt>
      <trkpt lat="43.41975" lon="6.05382">
        <ele>249.19999694824</ele>
        <time>2017-04-05T12:55:35Z</time>
      </trkpt>
      <trkpt lat="43.41978" lon="6.05391">
        <ele>249.60000610352</ele>
        <time>2017-04-05T12:55:38Z</time>
      </trkpt>
      <trkpt lat="43.41985" lon="6.05428">
        <ele>250.60000610352</ele>
        <time>2017-04-05T12:55:49Z</time>
      </trkpt>
      <trkpt lat="43.41989" lon="6.0545">
        <ele>251.39999389648</ele>
        <time>2017-04-05T12:55:56Z</time>
      </trkpt>
      <trkpt lat="43.41993" lon="6.05468">
        <ele>252.60000610352</ele>
        <time>2017-04-05T12:56:02Z</time>
      </trkpt>
      <trkpt lat="43.41996" lon="6.05486">
        <ele>253</ele>
        <time>2017-04-05T12:56:08Z</time>
      </trkpt>
      <trkpt lat="43.42001" lon="6.05502">
        <ele>253</ele>
        <time>2017-04-05T12:56:13Z</time>
      </trkpt>
      <trkpt lat="43.42003" lon="6.05519">
        <ele>252.60000610352</ele>
        <time>2017-04-05T12:56:17Z</time>
      </trkpt>
      <trkpt lat="43.42006" lon="6.05542">
        <ele>251.80000305176</ele>
        <time>2017-04-05T12:56:21Z</time>
      </trkpt>
      <trkpt lat="43.42007" lon="6.0555">
        <ele>251.39999389648</ele>
        <time>2017-04-05T12:56:22Z</time>
      </trkpt>
      <trkpt lat="43.42011" lon="6.05575">
        <ele>250</ele>
        <time>2017-04-05T12:56:25Z</time>
      </trkpt>
      <trkpt lat="43.4202" lon="6.05623">
        <ele>247.80000305176</ele>
        <time>2017-04-05T12:56:30Z</time>
      </trkpt>
      <trkpt lat="43.42024" lon="6.05645">
        <ele>246.60000610352</ele>
        <time>2017-04-05T12:56:32Z</time>
      </trkpt>
      <trkpt lat="43.42031" lon="6.05682">
        <ele>245.19999694824</ele>
        <time>2017-04-05T12:56:35Z</time>
      </trkpt>
      <trkpt lat="43.42036" lon="6.05708">
        <ele>244</ele>
        <time>2017-04-05T12:56:37Z</time>
      </trkpt>
      <trkpt lat="43.42042" lon="6.05734">
        <ele>243.19999694824</ele>
        <time>2017-04-05T12:56:39Z</time>
      </trkpt>
      <trkpt lat="43.42046" lon="6.05759">
        <ele>243</ele>
        <time>2017-04-05T12:56:41Z</time>
      </trkpt>
      <trkpt lat="43.42048" lon="6.05771">
        <ele>242.80000305176</ele>
        <time>2017-04-05T12:56:42Z</time>
      </trkpt>
      <trkpt lat="43.42053" lon="6.05805">
        <ele>243.39999389648</ele>
        <time>2017-04-05T12:56:45Z</time>
      </trkpt>
      <trkpt lat="43.42057" lon="6.05825">
        <ele>244</ele>
        <time>2017-04-05T12:56:47Z</time>
      </trkpt>
      <trkpt lat="43.42061" lon="6.05843">
        <ele>244.39999389648</ele>
        <time>2017-04-05T12:56:49Z</time>
      </trkpt>
      <trkpt lat="43.42066" lon="6.05863">
        <ele>245</ele>
        <time>2017-04-05T12:56:52Z</time>
      </trkpt>
      <trkpt lat="43.42069" lon="6.05874">
        <ele>246.19999694824</ele>
        <time>2017-04-05T12:56:54Z</time>
      </trkpt>
      <trkpt lat="43.42072" lon="6.0589">
        <ele>247.39999389648</ele>
        <time>2017-04-05T12:56:57Z</time>
      </trkpt>
      <trkpt lat="43.42075" lon="6.059">
        <ele>247.39999389648</ele>
        <time>2017-04-05T12:56:59Z</time>
      </trkpt>
      <trkpt lat="43.4208" lon="6.05916">
        <ele>247.39999389648</ele>
        <time>2017-04-05T12:57:03Z</time>
      </trkpt>
      <trkpt lat="43.42086" lon="6.05945">
        <ele>248</ele>
        <time>2017-04-05T12:57:09Z</time>
      </trkpt>
      <trkpt lat="43.42093" lon="6.05973">
        <ele>248.39999389648</ele>
        <time>2017-04-05T12:57:15Z</time>
      </trkpt>
      <trkpt lat="43.42097" lon="6.05989">
        <ele>248.60000610352</ele>
        <time>2017-04-05T12:57:19Z</time>
      </trkpt>
      <trkpt lat="43.42107" lon="6.06028">
        <ele>249</ele>
        <time>2017-04-05T12:57:29Z</time>
      </trkpt>
      <trkpt lat="43.4211" lon="6.06045">
        <ele>249.19999694824</ele>
        <time>2017-04-05T12:57:33Z</time>
      </trkpt>
      <trkpt lat="43.42112" lon="6.06055">
        <ele>249</ele>
        <time>2017-04-05T12:57:35Z</time>
      </trkpt>
      <trkpt lat="43.42114" lon="6.06072">
        <ele>248.80000305176</ele>
        <time>2017-04-05T12:57:38Z</time>
      </trkpt>
      <trkpt lat="43.42115" lon="6.06078">
        <ele>248.60000610352</ele>
        <time>2017-04-05T12:57:39Z</time>
      </trkpt>
      <trkpt lat="43.42117" lon="6.06091">
        <ele>248</ele>
        <time>2017-04-05T12:57:41Z</time>
      </trkpt>
      <trkpt lat="43.4212" lon="6.06107">
        <ele>247.19999694824</ele>
        <time>2017-04-05T12:57:43Z</time>
      </trkpt>
      <trkpt lat="43.42124" lon="6.06124">
        <ele>246.39999389648</ele>
        <time>2017-04-05T12:57:45Z</time>
      </trkpt>
      <trkpt lat="43.42126" lon="6.06133">
        <ele>246</ele>
        <time>2017-04-05T12:57:46Z</time>
      </trkpt>
      <trkpt lat="43.42128" lon="6.06141">
        <ele>245.80000305176</ele>
        <time>2017-04-05T12:57:47Z</time>
      </trkpt>
      <trkpt lat="43.42133" lon="6.06155">
        <ele>245.60000610352</ele>
        <time>2017-04-05T12:57:49Z</time>
      </trkpt>
      <trkpt lat="43.42137" lon="6.06167">
        <ele>245.60000610352</ele>
        <time>2017-04-05T12:57:51Z</time>
      </trkpt>
      <trkpt lat="43.42147" lon="6.062">
        <ele>246.39999389648</ele>
        <time>2017-04-05T12:58:00Z</time>
      </trkpt>
      <trkpt lat="43.42147" lon="6.06209">
        <ele>246.60000610352</ele>
        <time>2017-04-05T12:58:04Z</time>
      </trkpt>
      <trkpt lat="43.4214" lon="6.06219">
        <ele>247</ele>
        <time>2017-04-05T12:58:10Z</time>
      </trkpt>
      <trkpt lat="43.42138" lon="6.0622">
        <ele>247</ele>
        <time>2017-04-05T12:58:11Z</time>
      </trkpt>
      <trkpt lat="43.42136" lon="6.06222">
        <ele>246.80000305176</ele>
        <time>2017-04-05T12:58:21Z</time>
      </trkpt>
      <trkpt lat="43.42136" lon="6.06222">
        <ele>246.80000305176</ele>
        <time>2017-04-05T12:58:31Z</time>
      </trkpt>
      <trkpt lat="43.42136" lon="6.06222">
        <ele>246.60000610352</ele>
        <time>2017-04-05T12:58:32Z</time>
      </trkpt>
      <trkpt lat="43.4213" lon="6.06223">
        <ele>246.60000610352</ele>
        <time>2017-04-05T12:58:35Z</time>
      </trkpt>
      <trkpt lat="43.42126" lon="6.06224">
        <ele>246.39999389648</ele>
        <time>2017-04-05T12:58:36Z</time>
      </trkpt>
      <trkpt lat="43.42109" lon="6.06231">
        <ele>245.80000305176</ele>
        <time>2017-04-05T12:58:40Z</time>
      </trkpt>
      <trkpt lat="43.42098" lon="6.06235">
        <ele>245.39999389648</ele>
        <time>2017-04-05T12:58:42Z</time>
      </trkpt>
      <trkpt lat="43.42085" lon="6.06239">
        <ele>244.60000610352</ele>
        <time>2017-04-05T12:58:44Z</time>
      </trkpt>
      <trkpt lat="43.42062" lon="6.06246">
        <ele>243</ele>
        <time>2017-04-05T12:58:47Z</time>
      </trkpt>
      <trkpt lat="43.42044" lon="6.06252">
        <ele>241.19999694824</ele>
        <time>2017-04-05T12:58:49Z</time>
      </trkpt>
      <trkpt lat="43.42035" lon="6.06255">
        <ele>240.19999694824</ele>
        <time>2017-04-05T12:58:50Z</time>
      </trkpt>
      <trkpt lat="43.42025" lon="6.06259">
        <ele>239.19999694824</ele>
        <time>2017-04-05T12:58:51Z</time>
      </trkpt>
      <trkpt lat="43.42015" lon="6.06262">
        <ele>238.19999694824</ele>
        <time>2017-04-05T12:58:52Z</time>
      </trkpt>
      <trkpt lat="43.42004" lon="6.06266">
        <ele>237.19999694824</ele>
        <time>2017-04-05T12:58:53Z</time>
      </trkpt>
      <trkpt lat="43.41994" lon="6.06269">
        <ele>236</ele>
        <time>2017-04-05T12:58:54Z</time>
      </trkpt>
      <trkpt lat="43.41983" lon="6.06273">
        <ele>235</ele>
        <time>2017-04-05T12:58:55Z</time>
      </trkpt>
      <trkpt lat="43.41972" lon="6.06276">
        <ele>233.80000305176</ele>
        <time>2017-04-05T12:58:56Z</time>
      </trkpt>
      <trkpt lat="43.41961" lon="6.0628">
        <ele>232.39999389648</ele>
        <time>2017-04-05T12:58:57Z</time>
      </trkpt>
      <trkpt lat="43.41951" lon="6.06283">
        <ele>231</ele>
        <time>2017-04-05T12:58:58Z</time>
      </trkpt>
      <trkpt lat="43.41941" lon="6.06286">
        <ele>229.80000305176</ele>
        <time>2017-04-05T12:58:59Z</time>
      </trkpt>
      <trkpt lat="43.41932" lon="6.0629">
        <ele>228.60000610352</ele>
        <time>2017-04-05T12:59:00Z</time>
      </trkpt>
      <trkpt lat="43.41915" lon="6.06294">
        <ele>227.60000610352</ele>
        <time>2017-04-05T12:59:02Z</time>
      </trkpt>
      <trkpt lat="43.41889" lon="6.06294">
        <ele>226.60000610352</ele>
        <time>2017-04-05T12:59:05Z</time>
      </trkpt>
      <trkpt lat="43.41871" lon="6.06293">
        <ele>225.39999389648</ele>
        <time>2017-04-05T12:59:07Z</time>
      </trkpt>
      <trkpt lat="43.41852" lon="6.06292">
        <ele>224.19999694824</ele>
        <time>2017-04-05T12:59:09Z</time>
      </trkpt>
      <trkpt lat="43.41833" lon="6.06292">
        <ele>223</ele>
        <time>2017-04-05T12:59:11Z</time>
      </trkpt>
      <trkpt lat="43.41825" lon="6.06292">
        <ele>222.39999389648</ele>
        <time>2017-04-05T12:59:12Z</time>
      </trkpt>
      <trkpt lat="43.41816" lon="6.06292">
        <ele>221.80000305176</ele>
        <time>2017-04-05T12:59:13Z</time>
      </trkpt>
      <trkpt lat="43.41808" lon="6.0629">
        <ele>221.19999694824</ele>
        <time>2017-04-05T12:59:14Z</time>
      </trkpt>
      <trkpt lat="43.418" lon="6.06286">
        <ele>220.60000610352</ele>
        <time>2017-04-05T12:59:15Z</time>
      </trkpt>
      <trkpt lat="43.41794" lon="6.06281">
        <ele>220.19999694824</ele>
        <time>2017-04-05T12:59:16Z</time>
      </trkpt>
      <trkpt lat="43.4178" lon="6.06269">
        <ele>219.39999389648</ele>
        <time>2017-04-05T12:59:18Z</time>
      </trkpt>
      <trkpt lat="43.41773" lon="6.06264">
        <ele>219</ele>
        <time>2017-04-05T12:59:19Z</time>
      </trkpt>
      <trkpt lat="43.41766" lon="6.0626">
        <ele>218.39999389648</ele>
        <time>2017-04-05T12:59:20Z</time>
      </trkpt>
      <trkpt lat="43.4175" lon="6.06254">
        <ele>217.39999389648</ele>
        <time>2017-04-05T12:59:22Z</time>
      </trkpt>
      <trkpt lat="43.41742" lon="6.06252">
        <ele>217</ele>
        <time>2017-04-05T12:59:23Z</time>
      </trkpt>
      <trkpt lat="43.41708" lon="6.0625">
        <ele>216</ele>
        <time>2017-04-05T12:59:27Z</time>
      </trkpt>
      <trkpt lat="43.41684" lon="6.06249">
        <ele>214.80000305176</ele>
        <time>2017-04-05T12:59:30Z</time>
      </trkpt>
      <trkpt lat="43.4167" lon="6.06247">
        <ele>214</ele>
        <time>2017-04-05T12:59:32Z</time>
      </trkpt>
      <trkpt lat="43.41629" lon="6.06232">
        <ele>213.80000305176</ele>
        <time>2017-04-05T12:59:39Z</time>
      </trkpt>
      <trkpt lat="43.41621" lon="6.0623">
        <ele>213</ele>
        <time>2017-04-05T12:59:42Z</time>
      </trkpt>
      <trkpt lat="43.41619" lon="6.06231">
        <ele>212.60000610352</ele>
        <time>2017-04-05T12:59:43Z</time>
      </trkpt>
      <trkpt lat="43.41607" lon="6.06235">
        <ele>211.80000305176</ele>
        <time>2017-04-05T12:59:52Z</time>
      </trkpt>
      <trkpt lat="43.41607" lon="6.06236">
        <ele>211.60000610352</ele>
        <time>2017-04-05T12:59:53Z</time>
      </trkpt>
      <trkpt lat="43.41606" lon="6.06237">
        <ele>211.60000610352</ele>
        <time>2017-04-05T13:00:00Z</time>
      </trkpt>
      <trkpt lat="43.41605" lon="6.06237">
        <ele>211.60000610352</ele>
        <time>2017-04-05T13:00:02Z</time>
      </trkpt>
      <trkpt lat="43.41603" lon="6.06244">
        <ele>211.39999389648</ele>
        <time>2017-04-05T13:00:06Z</time>
      </trkpt>
      <trkpt lat="43.41603" lon="6.0625">
        <ele>211.39999389648</ele>
        <time>2017-04-05T13:00:08Z</time>
      </trkpt>
      <trkpt lat="43.41601" lon="6.0626">
        <ele>211.19999694824</ele>
        <time>2017-04-05T13:00:11Z</time>
      </trkpt>
      <trkpt lat="43.41599" lon="6.06261">
        <ele>211.19999694824</ele>
        <time>2017-04-05T13:00:12Z</time>
      </trkpt>
      <trkpt lat="43.41586" lon="6.06277">
        <ele>211.19999694824</ele>
        <time>2017-04-05T13:00:18Z</time>
      </trkpt>
      <trkpt lat="43.41586" lon="6.06287">
        <ele>210.60000610352</ele>
        <time>2017-04-05T13:00:21Z</time>
      </trkpt>
      <trkpt lat="43.41586" lon="6.0629">
        <ele>210.39999389648</ele>
        <time>2017-04-05T13:00:22Z</time>
      </trkpt>
      <trkpt lat="43.41584" lon="6.06295">
        <ele>210</ele>
        <time>2017-04-05T13:00:32Z</time>
      </trkpt>
      <trkpt lat="43.41584" lon="6.06295">
        <ele>210</ele>
        <time>2017-04-05T13:00:42Z</time>
      </trkpt>
      <trkpt lat="43.41585" lon="6.06301">
        <ele>209.80000305176</ele>
        <time>2017-04-05T13:00:52Z</time>
      </trkpt>
      <trkpt lat="43.41585" lon="6.06304">
        <ele>209.80000305176</ele>
        <time>2017-04-05T13:00:53Z</time>
      </trkpt>
      <trkpt lat="43.41579" lon="6.06324">
        <ele>209.39999389648</ele>
        <time>2017-04-05T13:00:58Z</time>
      </trkpt>
      <trkpt lat="43.41566" lon="6.06343">
        <ele>208.39999389648</ele>
        <time>2017-04-05T13:01:02Z</time>
      </trkpt>
      <trkpt lat="43.41563" lon="6.06349">
        <ele>208</ele>
        <time>2017-04-05T13:01:03Z</time>
      </trkpt>
      <trkpt lat="43.41558" lon="6.06364">
        <ele>207.60000610352</ele>
        <time>2017-04-05T13:01:05Z</time>
      </trkpt>
      <trkpt lat="43.41554" lon="6.06381">
        <ele>206.80000305176</ele>
        <time>2017-04-05T13:01:07Z</time>
      </trkpt>
      <trkpt lat="43.41549" lon="6.0641">
        <ele>205.60000610352</ele>
        <time>2017-04-05T13:01:10Z</time>
      </trkpt>
      <trkpt lat="43.41545" lon="6.0643">
        <ele>204.60000610352</ele>
        <time>2017-04-05T13:01:12Z</time>
      </trkpt>
      <trkpt lat="43.41543" lon="6.06449">
        <ele>203.80000305176</ele>
        <time>2017-04-05T13:01:14Z</time>
      </trkpt>
      <trkpt lat="43.41543" lon="6.06458">
        <ele>203.39999389648</ele>
        <time>2017-04-05T13:01:15Z</time>
      </trkpt>
      <trkpt lat="43.41544" lon="6.06466">
        <ele>203</ele>
        <time>2017-04-05T13:01:16Z</time>
      </trkpt>
      <trkpt lat="43.41545" lon="6.06479">
        <ele>202.60000610352</ele>
        <time>2017-04-05T13:01:18Z</time>
      </trkpt>
      <trkpt lat="43.41544" lon="6.06485">
        <ele>202.39999389648</ele>
        <time>2017-04-05T13:01:19Z</time>
      </trkpt>
      <trkpt lat="43.4154" lon="6.06493">
        <ele>202.19999694824</ele>
        <time>2017-04-05T13:01:21Z</time>
      </trkpt>
      <trkpt lat="43.41537" lon="6.06497">
        <ele>202</ele>
        <time>2017-04-05T13:01:22Z</time>
      </trkpt>
      <trkpt lat="43.41531" lon="6.06506">
        <ele>201.80000305176</ele>
        <time>2017-04-05T13:01:24Z</time>
      </trkpt>
      <trkpt lat="43.41526" lon="6.06517">
        <ele>201.39999389648</ele>
        <time>2017-04-05T13:01:26Z</time>
      </trkpt>
      <trkpt lat="43.41519" lon="6.06554">
        <ele>200.80000305176</ele>
        <time>2017-04-05T13:01:32Z</time>
      </trkpt>
      <trkpt lat="43.41514" lon="6.06582">
        <ele>200.39999389648</ele>
        <time>2017-04-05T13:01:37Z</time>
      </trkpt>
      <trkpt lat="43.4151" lon="6.06607">
        <ele>200.39999389648</ele>
        <time>2017-04-05T13:01:42Z</time>
      </trkpt>
      <trkpt lat="43.41502" lon="6.06655">
        <ele>200.19999694824</ele>
        <time>2017-04-05T13:01:52Z</time>
      </trkpt>
      <trkpt lat="43.41497" lon="6.06709">
        <ele>199.60000610352</ele>
        <time>2017-04-05T13:02:02Z</time>
      </trkpt>
      <trkpt lat="43.41495" lon="6.06739">
        <ele>199.39999389648</ele>
        <time>2017-04-05T13:02:07Z</time>
      </trkpt>
      <trkpt lat="43.41492" lon="6.06773">
        <ele>198.80000305176</ele>
        <time>2017-04-05T13:02:12Z</time>
      </trkpt>
      <trkpt lat="43.41488" lon="6.06793">
        <ele>198.19999694824</ele>
        <time>2017-04-05T13:02:15Z</time>
      </trkpt>
      <trkpt lat="43.41478" lon="6.06833">
        <ele>197.19999694824</ele>
        <time>2017-04-05T13:02:22Z</time>
      </trkpt>
      <trkpt lat="43.41475" lon="6.06866">
        <ele>197.39999389648</ele>
        <time>2017-04-05T13:02:32Z</time>
      </trkpt>
      <trkpt lat="43.41477" lon="6.0688">
        <ele>197.39999389648</ele>
        <time>2017-04-05T13:02:40Z</time>
      </trkpt>
      <trkpt lat="43.41476" lon="6.06887">
        <ele>197.39999389648</ele>
        <time>2017-04-05T13:02:43Z</time>
      </trkpt>
      <trkpt lat="43.41477" lon="6.06907">
        <ele>197.39999389648</ele>
        <time>2017-04-05T13:02:49Z</time>
      </trkpt>
      <trkpt lat="43.41479" lon="6.0691">
        <ele>197.39999389648</ele>
        <time>2017-04-05T13:02:51Z</time>
      </trkpt>
      <trkpt lat="43.4148" lon="6.06912">
        <ele>197.39999389648</ele>
        <time>2017-04-05T13:02:52Z</time>
      </trkpt>
      <trkpt lat="43.41485" lon="6.06951">
        <ele>196.80000305176</ele>
        <time>2017-04-05T13:03:02Z</time>
      </trkpt>
      <trkpt lat="43.41504" lon="6.06972">
        <ele>196.80000305176</ele>
        <time>2017-04-05T13:03:12Z</time>
      </trkpt>
      <trkpt lat="43.41508" lon="6.06975">
        <ele>196.80000305176</ele>
        <time>2017-04-05T13:03:15Z</time>
      </trkpt>
      <trkpt lat="43.41525" lon="6.0698">
        <ele>196.39999389648</ele>
        <time>2017-04-05T13:03:22Z</time>
      </trkpt>
      <trkpt lat="43.4154" lon="6.06979">
        <ele>196.80000305176</ele>
        <time>2017-04-05T13:03:30Z</time>
      </trkpt>
      <trkpt lat="43.41544" lon="6.06978">
        <ele>197.19999694824</ele>
        <time>2017-04-05T13:03:32Z</time>
      </trkpt>
      <trkpt lat="43.41565" lon="6.06978">
        <ele>197.19999694824</ele>
        <time>2017-04-05T13:03:41Z</time>
      </trkpt>
      <trkpt lat="43.41574" lon="6.06992">
        <ele>197.19999694824</ele>
        <time>2017-04-05T13:03:51Z</time>
      </trkpt>
      <trkpt lat="43.41575" lon="6.06994">
        <ele>197.19999694824</ele>
        <time>2017-04-05T13:03:52Z</time>
      </trkpt>
      <trkpt lat="43.41579" lon="6.07023">
        <ele>197.19999694824</ele>
        <time>2017-04-05T13:04:03Z</time>
      </trkpt>
      <trkpt lat="43.41579" lon="6.07041">
        <ele>197.39999389648</ele>
        <time>2017-04-05T13:04:13Z</time>
      </trkpt>
      <trkpt lat="43.41579" lon="6.07041">
        <ele>197.60000610352</ele>
        <time>2017-04-05T13:04:23Z</time>
      </trkpt>
      <trkpt lat="43.41579" lon="6.07041">
        <ele>197.39999389648</ele>
        <time>2017-04-05T13:04:41Z</time>
      </trkpt>
    </trkseg>
  </trk>
</gpx>